<?xml version="1.0" encoding="UTF-8"?>
<gpx xmlns="http://www.topografix.com/GPX/1/1" xmlns:gpsies="https://www.gpsies.com/GPX/1/0" creator="GPSies https://www.gpsies.com - eshtaol-zora2" version="1.1" xmlns:xsi="http://www.w3.org/2001/XMLSchema-instance" xsi:schemaLocation="http://www.topografix.com/GPX/1/1 http://www.topografix.com/GPX/1/1/gpx.xsd https://www.gpsies.com/GPX/1/0 https://www.gpsies.com/gpsies.xsd">
  <metadata>
    <name>eshtaol-zora2</name>
    <author>
      <name>igor968</name>
      <link href="https://www.gpsies.com/mapUser.do?username=igor968">
        <text>igor968 on GPSies.com</text>
        <type>GPSiesUserOnWeb</type>
      </link>
    </author>
    <link href="https://www.gpsies.com/map.do?fileId=itggbsdvmzaznumm">
      <text>eshtaol-zora2 on GPSies.com</text>
      <type>trackOnWeb</type>
    </link>
    <time>2018-09-12T17:49:36Z</time>
    <extensions>
      <gpsies:property>round trip</gpsies:property>
      <gpsies:trackLengthMeter>29425.897940943138</gpsies:trackLengthMeter>
      <gpsies:totalAscentMeter>620.0</gpsies:totalAscentMeter>
      <gpsies:totalDescentMeter>619.0</gpsies:totalDescentMeter>
      <gpsies:minHeightMeter>199.0</gpsies:minHeightMeter>
      <gpsies:maxHeightMeter>399.0</gpsies:maxHeightMeter>
    </extensions>
  </metadata>
  <trk>
    <name>eshtaol-zora2 on GPSies.com</name>
    <link href="https://www.gpsies.com/map.do?fileId=itggbsdvmzaznumm">
      <type>trackOnWeb</type>
    </link>
    <link href="https://www.gpsies.com/charts/it/map/itggbsdvmzaznumm_map.png">
      <type>elevationChartUrlMap</type>
    </link>
    <link href="https://www.gpsies.com/charts/it/mapThumb/itggbsdvmzaznumm_mapThumb.png">
      <type>elevationChartUrlMapThumb</type>
    </link>
    <link href="https://www.gpsies.com/charts/it/tab/itggbsdvmzaznumm_tab.png">
      <type>elevationChartUrlTab</type>
    </link>
    <trkseg>
      <trkpt lat="31.78162220" lon="35.00226430">
        <ele>264.00000</ele>
        <time>2010-01-01T00:00:00Z</time>
      </trkpt>
      <trkpt lat="31.78162000" lon="35.00225000">
        <ele>264.00000</ele>
        <time>2010-01-01T00:00:00Z</time>
      </trkpt>
      <trkpt lat="31.78139000" lon="35.00231000">
        <ele>263.00000</ele>
        <time>2010-01-01T00:00:09Z</time>
      </trkpt>
      <trkpt lat="31.78122000" lon="35.00194000">
        <ele>267.00000</ele>
        <time>2010-01-01T00:00:24Z</time>
      </trkpt>
      <trkpt lat="31.78112000" lon="35.00176000">
        <ele>270.00000</ele>
        <time>2010-01-01T00:00:31Z</time>
      </trkpt>
      <trkpt lat="31.78120000" lon="35.00158000">
        <ele>270.00000</ele>
        <time>2010-01-01T00:00:38Z</time>
      </trkpt>
      <trkpt lat="31.78134000" lon="35.00113000">
        <ele>268.00000</ele>
        <time>2010-01-01T00:00:54Z</time>
      </trkpt>
      <trkpt lat="31.78139000" lon="35.00098000">
        <ele>267.00000</ele>
        <time>2010-01-01T00:01:00Z</time>
      </trkpt>
      <trkpt lat="31.78139000" lon="35.00089000">
        <ele>267.00000</ele>
        <time>2010-01-01T00:01:03Z</time>
      </trkpt>
      <trkpt lat="31.78107000" lon="35.00074000">
        <ele>272.00000</ele>
        <time>2010-01-01T00:01:17Z</time>
      </trkpt>
      <trkpt lat="31.78078000" lon="35.00059000">
        <ele>275.00000</ele>
        <time>2010-01-01T00:01:29Z</time>
      </trkpt>
      <trkpt lat="31.78067000" lon="35.00049000">
        <ele>276.00000</ele>
        <time>2010-01-01T00:01:35Z</time>
      </trkpt>
      <trkpt lat="31.78063000" lon="35.00038000">
        <ele>277.00000</ele>
        <time>2010-01-01T00:01:39Z</time>
      </trkpt>
      <trkpt lat="31.78061000" lon="35.00019000">
        <ele>277.00000</ele>
        <time>2010-01-01T00:01:45Z</time>
      </trkpt>
      <trkpt lat="31.78061000" lon="34.99944000">
        <ele>278.00000</ele>
        <time>2010-01-01T00:02:11Z</time>
      </trkpt>
      <trkpt lat="31.78049000" lon="34.99904000">
        <ele>279.00000</ele>
        <time>2010-01-01T00:02:25Z</time>
      </trkpt>
      <trkpt lat="31.78044000" lon="34.99896000">
        <ele>278.00000</ele>
        <time>2010-01-01T00:02:29Z</time>
      </trkpt>
      <trkpt lat="31.78044000" lon="34.99895000">
        <ele>278.00000</ele>
        <time>2010-01-01T00:02:29Z</time>
      </trkpt>
      <trkpt lat="31.78040000" lon="34.99890000">
        <ele>278.00000</ele>
        <time>2010-01-01T00:02:31Z</time>
      </trkpt>
      <trkpt lat="31.78029000" lon="34.99881000">
        <ele>277.00000</ele>
        <time>2010-01-01T00:02:37Z</time>
      </trkpt>
      <trkpt lat="31.77983000" lon="34.99851000">
        <ele>274.00000</ele>
        <time>2010-01-01T00:02:58Z</time>
      </trkpt>
      <trkpt lat="31.77977000" lon="34.99842000">
        <ele>275.00000</ele>
        <time>2010-01-01T00:03:02Z</time>
      </trkpt>
      <trkpt lat="31.77974000" lon="34.99830000">
        <ele>276.00000</ele>
        <time>2010-01-01T00:03:06Z</time>
      </trkpt>
      <trkpt lat="31.77973000" lon="34.99815000">
        <ele>277.00000</ele>
        <time>2010-01-01T00:03:11Z</time>
      </trkpt>
      <trkpt lat="31.77976000" lon="34.99799000">
        <ele>278.00000</ele>
        <time>2010-01-01T00:03:17Z</time>
      </trkpt>
      <trkpt lat="31.77991000" lon="34.99762000">
        <ele>279.00000</ele>
        <time>2010-01-01T00:03:31Z</time>
      </trkpt>
      <trkpt lat="31.77994000" lon="34.99748000">
        <ele>279.00000</ele>
        <time>2010-01-01T00:03:36Z</time>
      </trkpt>
      <trkpt lat="31.77995000" lon="34.99737000">
        <ele>280.00000</ele>
        <time>2010-01-01T00:03:39Z</time>
      </trkpt>
      <trkpt lat="31.77993000" lon="34.99721000">
        <ele>281.00000</ele>
        <time>2010-01-01T00:03:45Z</time>
      </trkpt>
      <trkpt lat="31.77988000" lon="34.99701000">
        <ele>283.00000</ele>
        <time>2010-01-01T00:03:52Z</time>
      </trkpt>
      <trkpt lat="31.77961000" lon="34.99643000">
        <ele>291.00000</ele>
        <time>2010-01-01T00:04:14Z</time>
      </trkpt>
      <trkpt lat="31.77960000" lon="34.99628000">
        <ele>290.00000</ele>
        <time>2010-01-01T00:04:20Z</time>
      </trkpt>
      <trkpt lat="31.77986000" lon="34.99578000">
        <ele>290.00000</ele>
        <time>2010-01-01T00:04:40Z</time>
      </trkpt>
      <trkpt lat="31.78004000" lon="34.99557000">
        <ele>293.00000</ele>
        <time>2010-01-01T00:04:50Z</time>
      </trkpt>
      <trkpt lat="31.78025000" lon="34.99546000">
        <ele>293.00000</ele>
        <time>2010-01-01T00:04:59Z</time>
      </trkpt>
      <trkpt lat="31.78032000" lon="34.99547000">
        <ele>292.00000</ele>
        <time>2010-01-01T00:05:02Z</time>
      </trkpt>
      <trkpt lat="31.78066000" lon="34.99567000">
        <ele>291.00000</ele>
        <time>2010-01-01T00:05:17Z</time>
      </trkpt>
      <trkpt lat="31.78094000" lon="34.99577000">
        <ele>290.00000</ele>
        <time>2010-01-01T00:05:29Z</time>
      </trkpt>
      <trkpt lat="31.78094000" lon="34.99576000">
        <ele>290.00000</ele>
        <time>2010-01-01T00:05:29Z</time>
      </trkpt>
      <trkpt lat="31.78117000" lon="34.99585000">
        <ele>290.00000</ele>
        <time>2010-01-01T00:05:39Z</time>
      </trkpt>
      <trkpt lat="31.78141000" lon="34.99598000">
        <ele>290.00000</ele>
        <time>2010-01-01T00:05:49Z</time>
      </trkpt>
      <trkpt lat="31.78182000" lon="34.99608000">
        <ele>292.00000</ele>
        <time>2010-01-01T00:06:06Z</time>
      </trkpt>
      <trkpt lat="31.78234000" lon="34.99629000">
        <ele>295.00000</ele>
        <time>2010-01-01T00:06:28Z</time>
      </trkpt>
      <trkpt lat="31.78268000" lon="34.99647000">
        <ele>297.00000</ele>
        <time>2010-01-01T00:06:43Z</time>
      </trkpt>
      <trkpt lat="31.78325000" lon="34.99664000">
        <ele>298.00000</ele>
        <time>2010-01-01T00:07:06Z</time>
      </trkpt>
      <trkpt lat="31.78344000" lon="34.99672000">
        <ele>298.00000</ele>
        <time>2010-01-01T00:07:15Z</time>
      </trkpt>
      <trkpt lat="31.78373000" lon="34.99700000">
        <ele>299.00000</ele>
        <time>2010-01-01T00:07:30Z</time>
      </trkpt>
      <trkpt lat="31.78382000" lon="34.99712000">
        <ele>299.00000</ele>
        <time>2010-01-01T00:07:35Z</time>
      </trkpt>
      <trkpt lat="31.78388000" lon="34.99723000">
        <ele>299.00000</ele>
        <time>2010-01-01T00:07:39Z</time>
      </trkpt>
      <trkpt lat="31.78392000" lon="34.99737000">
        <ele>299.00000</ele>
        <time>2010-01-01T00:07:44Z</time>
      </trkpt>
      <trkpt lat="31.78393000" lon="34.99745000">
        <ele>299.00000</ele>
        <time>2010-01-01T00:07:47Z</time>
      </trkpt>
      <trkpt lat="31.78390000" lon="34.99755000">
        <ele>298.00000</ele>
        <time>2010-01-01T00:07:51Z</time>
      </trkpt>
      <trkpt lat="31.78374000" lon="34.99789000">
        <ele>294.00000</ele>
        <time>2010-01-01T00:08:04Z</time>
      </trkpt>
      <trkpt lat="31.78367000" lon="34.99809000">
        <ele>292.00000</ele>
        <time>2010-01-01T00:08:11Z</time>
      </trkpt>
      <trkpt lat="31.78367000" lon="34.99818000">
        <ele>292.00000</ele>
        <time>2010-01-01T00:08:14Z</time>
      </trkpt>
      <trkpt lat="31.78370000" lon="34.99832000">
        <ele>292.00000</ele>
        <time>2010-01-01T00:08:19Z</time>
      </trkpt>
      <trkpt lat="31.78376000" lon="34.99843000">
        <ele>293.00000</ele>
        <time>2010-01-01T00:08:24Z</time>
      </trkpt>
      <trkpt lat="31.78384000" lon="34.99853000">
        <ele>293.00000</ele>
        <time>2010-01-01T00:08:29Z</time>
      </trkpt>
      <trkpt lat="31.78415000" lon="34.99878000">
        <ele>295.00000</ele>
        <time>2010-01-01T00:08:44Z</time>
      </trkpt>
      <trkpt lat="31.78456000" lon="34.99917000">
        <ele>296.00000</ele>
        <time>2010-01-01T00:09:05Z</time>
      </trkpt>
      <trkpt lat="31.78491000" lon="34.99916000">
        <ele>299.00000</ele>
        <time>2010-01-01T00:09:19Z</time>
      </trkpt>
      <trkpt lat="31.78520000" lon="34.99918000">
        <ele>300.00000</ele>
        <time>2010-01-01T00:09:30Z</time>
      </trkpt>
      <trkpt lat="31.78535000" lon="34.99916000">
        <ele>301.00000</ele>
        <time>2010-01-01T00:09:36Z</time>
      </trkpt>
      <trkpt lat="31.78545000" lon="34.99910000">
        <ele>302.00000</ele>
        <time>2010-01-01T00:09:41Z</time>
      </trkpt>
      <trkpt lat="31.78557000" lon="34.99900000">
        <ele>304.00000</ele>
        <time>2010-01-01T00:09:47Z</time>
      </trkpt>
      <trkpt lat="31.78572000" lon="34.99882000">
        <ele>306.00000</ele>
        <time>2010-01-01T00:09:55Z</time>
      </trkpt>
      <trkpt lat="31.78581000" lon="34.99874000">
        <ele>308.00000</ele>
        <time>2010-01-01T00:10:00Z</time>
      </trkpt>
      <trkpt lat="31.78605000" lon="34.99862000">
        <ele>311.00000</ele>
        <time>2010-01-01T00:10:10Z</time>
      </trkpt>
      <trkpt lat="31.78605000" lon="34.99863000">
        <ele>311.00000</ele>
        <time>2010-01-01T00:10:11Z</time>
      </trkpt>
      <trkpt lat="31.78617000" lon="34.99857000">
        <ele>312.00000</ele>
        <time>2010-01-01T00:10:16Z</time>
      </trkpt>
      <trkpt lat="31.78638000" lon="34.99833000">
        <ele>315.00000</ele>
        <time>2010-01-01T00:10:28Z</time>
      </trkpt>
      <trkpt lat="31.78650000" lon="34.99832000">
        <ele>315.00000</ele>
        <time>2010-01-01T00:10:32Z</time>
      </trkpt>
      <trkpt lat="31.78684000" lon="34.99806000">
        <ele>316.00000</ele>
        <time>2010-01-01T00:10:49Z</time>
      </trkpt>
      <trkpt lat="31.78708000" lon="34.99738000">
        <ele>321.00000</ele>
        <time>2010-01-01T00:11:14Z</time>
      </trkpt>
      <trkpt lat="31.78706000" lon="34.99701000">
        <ele>324.00000</ele>
        <time>2010-01-01T00:11:26Z</time>
      </trkpt>
      <trkpt lat="31.78697000" lon="34.99638000">
        <ele>327.00000</ele>
        <time>2010-01-01T00:11:48Z</time>
      </trkpt>
      <trkpt lat="31.78703000" lon="34.99626000">
        <ele>328.00000</ele>
        <time>2010-01-01T00:11:53Z</time>
      </trkpt>
      <trkpt lat="31.78684000" lon="34.99616000">
        <ele>328.00000</ele>
        <time>2010-01-01T00:12:01Z</time>
      </trkpt>
      <trkpt lat="31.78676000" lon="34.99617000">
        <ele>328.00000</ele>
        <time>2010-01-01T00:12:04Z</time>
      </trkpt>
      <trkpt lat="31.78648000" lon="34.99629000">
        <ele>330.00000</ele>
        <time>2010-01-01T00:12:16Z</time>
      </trkpt>
      <trkpt lat="31.78608000" lon="34.99631000">
        <ele>336.00000</ele>
        <time>2010-01-01T00:12:32Z</time>
      </trkpt>
      <trkpt lat="31.78609000" lon="34.99613000">
        <ele>337.00000</ele>
        <time>2010-01-01T00:12:38Z</time>
      </trkpt>
      <trkpt lat="31.78613000" lon="34.99602000">
        <ele>337.00000</ele>
        <time>2010-01-01T00:12:42Z</time>
      </trkpt>
      <trkpt lat="31.78629000" lon="34.99578000">
        <ele>336.00000</ele>
        <time>2010-01-01T00:12:53Z</time>
      </trkpt>
      <trkpt lat="31.78663000" lon="34.99538000">
        <ele>335.00000</ele>
        <time>2010-01-01T00:13:12Z</time>
      </trkpt>
      <trkpt lat="31.78673000" lon="34.99527000">
        <ele>335.00000</ele>
        <time>2010-01-01T00:13:18Z</time>
      </trkpt>
      <trkpt lat="31.78687000" lon="34.99516000">
        <ele>335.00000</ele>
        <time>2010-01-01T00:13:24Z</time>
      </trkpt>
      <trkpt lat="31.78696000" lon="34.99512000">
        <ele>334.00000</ele>
        <time>2010-01-01T00:13:28Z</time>
      </trkpt>
      <trkpt lat="31.78705000" lon="34.99505000">
        <ele>333.00000</ele>
        <time>2010-01-01T00:13:32Z</time>
      </trkpt>
      <trkpt lat="31.78713000" lon="34.99493000">
        <ele>333.00000</ele>
        <time>2010-01-01T00:13:38Z</time>
      </trkpt>
      <trkpt lat="31.78716000" lon="34.99481000">
        <ele>332.00000</ele>
        <time>2010-01-01T00:13:42Z</time>
      </trkpt>
      <trkpt lat="31.78719000" lon="34.99424000">
        <ele>332.00000</ele>
        <time>2010-01-01T00:14:01Z</time>
      </trkpt>
      <trkpt lat="31.78725000" lon="34.99385000">
        <ele>328.00000</ele>
        <time>2010-01-01T00:14:15Z</time>
      </trkpt>
      <trkpt lat="31.78716000" lon="34.99341000">
        <ele>329.00000</ele>
        <time>2010-01-01T00:14:30Z</time>
      </trkpt>
      <trkpt lat="31.78717000" lon="34.99336000">
        <ele>329.00000</ele>
        <time>2010-01-01T00:14:32Z</time>
      </trkpt>
      <trkpt lat="31.78731000" lon="34.99317000">
        <ele>328.00000</ele>
        <time>2010-01-01T00:14:41Z</time>
      </trkpt>
      <trkpt lat="31.78735000" lon="34.99307000">
        <ele>328.00000</ele>
        <time>2010-01-01T00:14:44Z</time>
      </trkpt>
      <trkpt lat="31.78737000" lon="34.99296000">
        <ele>328.00000</ele>
        <time>2010-01-01T00:14:48Z</time>
      </trkpt>
      <trkpt lat="31.78737000" lon="34.99283000">
        <ele>329.00000</ele>
        <time>2010-01-01T00:14:53Z</time>
      </trkpt>
      <trkpt lat="31.78735000" lon="34.99275000">
        <ele>330.00000</ele>
        <time>2010-01-01T00:14:55Z</time>
      </trkpt>
      <trkpt lat="31.78735000" lon="34.99274000">
        <ele>330.00000</ele>
        <time>2010-01-01T00:14:56Z</time>
      </trkpt>
      <trkpt lat="31.78734000" lon="34.99266000">
        <ele>331.00000</ele>
        <time>2010-01-01T00:14:58Z</time>
      </trkpt>
      <trkpt lat="31.78723000" lon="34.99238000">
        <ele>334.00000</ele>
        <time>2010-01-01T00:15:09Z</time>
      </trkpt>
      <trkpt lat="31.78718000" lon="34.99219000">
        <ele>337.00000</ele>
        <time>2010-01-01T00:15:16Z</time>
      </trkpt>
      <trkpt lat="31.78721000" lon="34.99192000">
        <ele>338.00000</ele>
        <time>2010-01-01T00:15:25Z</time>
      </trkpt>
      <trkpt lat="31.78720000" lon="34.99168000">
        <ele>338.00000</ele>
        <time>2010-01-01T00:15:33Z</time>
      </trkpt>
      <trkpt lat="31.78722000" lon="34.99124000">
        <ele>339.00000</ele>
        <time>2010-01-01T00:15:48Z</time>
      </trkpt>
      <trkpt lat="31.78720000" lon="34.99085000">
        <ele>342.00000</ele>
        <time>2010-01-01T00:16:01Z</time>
      </trkpt>
      <trkpt lat="31.78723000" lon="34.99068000">
        <ele>343.00000</ele>
        <time>2010-01-01T00:16:07Z</time>
      </trkpt>
      <trkpt lat="31.78734000" lon="34.99034000">
        <ele>343.00000</ele>
        <time>2010-01-01T00:16:20Z</time>
      </trkpt>
      <trkpt lat="31.78755000" lon="34.99001000">
        <ele>337.00000</ele>
        <time>2010-01-01T00:16:34Z</time>
      </trkpt>
      <trkpt lat="31.78759000" lon="34.98987000">
        <ele>337.00000</ele>
        <time>2010-01-01T00:16:39Z</time>
      </trkpt>
      <trkpt lat="31.78760000" lon="34.98976000">
        <ele>337.00000</ele>
        <time>2010-01-01T00:16:43Z</time>
      </trkpt>
      <trkpt lat="31.78759000" lon="34.98961000">
        <ele>336.00000</ele>
        <time>2010-01-01T00:16:48Z</time>
      </trkpt>
      <trkpt lat="31.78751000" lon="34.98916000">
        <ele>337.00000</ele>
        <time>2010-01-01T00:17:03Z</time>
      </trkpt>
      <trkpt lat="31.78751000" lon="34.98915000">
        <ele>337.00000</ele>
        <time>2010-01-01T00:17:04Z</time>
      </trkpt>
      <trkpt lat="31.78742000" lon="34.98866000">
        <ele>340.00000</ele>
        <time>2010-01-01T00:17:21Z</time>
      </trkpt>
      <trkpt lat="31.78731000" lon="34.98839000">
        <ele>342.00000</ele>
        <time>2010-01-01T00:17:31Z</time>
      </trkpt>
      <trkpt lat="31.78729000" lon="34.98828000">
        <ele>342.00000</ele>
        <time>2010-01-01T00:17:35Z</time>
      </trkpt>
      <trkpt lat="31.78729000" lon="34.98817000">
        <ele>342.00000</ele>
        <time>2010-01-01T00:17:38Z</time>
      </trkpt>
      <trkpt lat="31.78745000" lon="34.98763000">
        <ele>339.00000</ele>
        <time>2010-01-01T00:17:58Z</time>
      </trkpt>
      <trkpt lat="31.78747000" lon="34.98741000">
        <ele>339.00000</ele>
        <time>2010-01-01T00:18:05Z</time>
      </trkpt>
      <trkpt lat="31.78745000" lon="34.98729000">
        <ele>340.00000</ele>
        <time>2010-01-01T00:18:10Z</time>
      </trkpt>
      <trkpt lat="31.78740000" lon="34.98711000">
        <ele>339.00000</ele>
        <time>2010-01-01T00:18:16Z</time>
      </trkpt>
      <trkpt lat="31.78727000" lon="34.98688000">
        <ele>340.00000</ele>
        <time>2010-01-01T00:18:25Z</time>
      </trkpt>
      <trkpt lat="31.78719000" lon="34.98680000">
        <ele>340.00000</ele>
        <time>2010-01-01T00:18:30Z</time>
      </trkpt>
      <trkpt lat="31.78672000" lon="34.98658000">
        <ele>336.00000</ele>
        <time>2010-01-01T00:18:50Z</time>
      </trkpt>
      <trkpt lat="31.78658000" lon="34.98654000">
        <ele>335.00000</ele>
        <time>2010-01-01T00:18:56Z</time>
      </trkpt>
      <trkpt lat="31.78651000" lon="34.98655000">
        <ele>335.00000</ele>
        <time>2010-01-01T00:18:59Z</time>
      </trkpt>
      <trkpt lat="31.78647000" lon="34.98659000">
        <ele>335.00000</ele>
        <time>2010-01-01T00:19:01Z</time>
      </trkpt>
      <trkpt lat="31.78644000" lon="34.98665000">
        <ele>336.00000</ele>
        <time>2010-01-01T00:19:03Z</time>
      </trkpt>
      <trkpt lat="31.78641000" lon="34.98732000">
        <ele>337.00000</ele>
        <time>2010-01-01T00:19:26Z</time>
      </trkpt>
      <trkpt lat="31.78641000" lon="34.98731000">
        <ele>337.00000</ele>
        <time>2010-01-01T00:19:26Z</time>
      </trkpt>
      <trkpt lat="31.78641000" lon="34.98762000">
        <ele>336.00000</ele>
        <time>2010-01-01T00:19:37Z</time>
      </trkpt>
      <trkpt lat="31.78647000" lon="34.98825000">
        <ele>334.00000</ele>
        <time>2010-01-01T00:19:58Z</time>
      </trkpt>
      <trkpt lat="31.78647000" lon="34.98841000">
        <ele>334.00000</ele>
        <time>2010-01-01T00:20:04Z</time>
      </trkpt>
      <trkpt lat="31.78639000" lon="34.98905000">
        <ele>334.00000</ele>
        <time>2010-01-01T00:20:26Z</time>
      </trkpt>
      <trkpt lat="31.78636000" lon="34.98953000">
        <ele>337.00000</ele>
        <time>2010-01-01T00:20:42Z</time>
      </trkpt>
      <trkpt lat="31.78634000" lon="34.98968000">
        <ele>338.00000</ele>
        <time>2010-01-01T00:20:47Z</time>
      </trkpt>
      <trkpt lat="31.78614000" lon="34.99005000">
        <ele>338.00000</ele>
        <time>2010-01-01T00:21:02Z</time>
      </trkpt>
      <trkpt lat="31.78599000" lon="34.99015000">
        <ele>341.00000</ele>
        <time>2010-01-01T00:21:09Z</time>
      </trkpt>
      <trkpt lat="31.78592000" lon="34.99017000">
        <ele>341.00000</ele>
        <time>2010-01-01T00:21:12Z</time>
      </trkpt>
      <trkpt lat="31.78585000" lon="34.99016000">
        <ele>341.00000</ele>
        <time>2010-01-01T00:21:15Z</time>
      </trkpt>
      <trkpt lat="31.78555000" lon="34.98995000">
        <ele>339.00000</ele>
        <time>2010-01-01T00:21:29Z</time>
      </trkpt>
      <trkpt lat="31.78546000" lon="34.98995000">
        <ele>339.00000</ele>
        <time>2010-01-01T00:21:32Z</time>
      </trkpt>
      <trkpt lat="31.78533000" lon="34.99002000">
        <ele>341.00000</ele>
        <time>2010-01-01T00:21:38Z</time>
      </trkpt>
      <trkpt lat="31.78516000" lon="34.99015000">
        <ele>342.00000</ele>
        <time>2010-01-01T00:21:46Z</time>
      </trkpt>
      <trkpt lat="31.78508000" lon="34.99022000">
        <ele>342.00000</ele>
        <time>2010-01-01T00:21:50Z</time>
      </trkpt>
      <trkpt lat="31.78500000" lon="34.99035000">
        <ele>341.00000</ele>
        <time>2010-01-01T00:21:56Z</time>
      </trkpt>
      <trkpt lat="31.78493000" lon="34.99053000">
        <ele>340.00000</ele>
        <time>2010-01-01T00:22:02Z</time>
      </trkpt>
      <trkpt lat="31.78490000" lon="34.99078000">
        <ele>341.00000</ele>
        <time>2010-01-01T00:22:11Z</time>
      </trkpt>
      <trkpt lat="31.78493000" lon="34.99096000">
        <ele>342.00000</ele>
        <time>2010-01-01T00:22:17Z</time>
      </trkpt>
      <trkpt lat="31.78493000" lon="34.99095000">
        <ele>342.00000</ele>
        <time>2010-01-01T00:22:18Z</time>
      </trkpt>
      <trkpt lat="31.78496000" lon="34.99116000">
        <ele>343.00000</ele>
        <time>2010-01-01T00:22:25Z</time>
      </trkpt>
      <trkpt lat="31.78505000" lon="34.99144000">
        <ele>347.00000</ele>
        <time>2010-01-01T00:22:35Z</time>
      </trkpt>
      <trkpt lat="31.78505000" lon="34.99160000">
        <ele>348.00000</ele>
        <time>2010-01-01T00:22:40Z</time>
      </trkpt>
      <trkpt lat="31.78500000" lon="34.99174000">
        <ele>350.00000</ele>
        <time>2010-01-01T00:22:46Z</time>
      </trkpt>
      <trkpt lat="31.78496000" lon="34.99180000">
        <ele>350.00000</ele>
        <time>2010-01-01T00:22:48Z</time>
      </trkpt>
      <trkpt lat="31.78490000" lon="34.99184000">
        <ele>350.00000</ele>
        <time>2010-01-01T00:22:51Z</time>
      </trkpt>
      <trkpt lat="31.78461000" lon="34.99191000">
        <ele>348.00000</ele>
        <time>2010-01-01T00:23:03Z</time>
      </trkpt>
      <trkpt lat="31.78422000" lon="34.99186000">
        <ele>345.00000</ele>
        <time>2010-01-01T00:23:19Z</time>
      </trkpt>
      <trkpt lat="31.78399000" lon="34.99177000">
        <ele>345.00000</ele>
        <time>2010-01-01T00:23:28Z</time>
      </trkpt>
      <trkpt lat="31.78390000" lon="34.99172000">
        <ele>345.00000</ele>
        <time>2010-01-01T00:23:32Z</time>
      </trkpt>
      <trkpt lat="31.78363000" lon="34.99147000">
        <ele>344.00000</ele>
        <time>2010-01-01T00:23:46Z</time>
      </trkpt>
      <trkpt lat="31.78349000" lon="34.99129000">
        <ele>343.00000</ele>
        <time>2010-01-01T00:23:54Z</time>
      </trkpt>
      <trkpt lat="31.78348000" lon="34.99129000">
        <ele>343.00000</ele>
        <time>2010-01-01T00:23:55Z</time>
      </trkpt>
      <trkpt lat="31.78336000" lon="34.99106000">
        <ele>341.00000</ele>
        <time>2010-01-01T00:24:04Z</time>
      </trkpt>
      <trkpt lat="31.78320000" lon="34.99064000">
        <ele>337.00000</ele>
        <time>2010-01-01T00:24:20Z</time>
      </trkpt>
      <trkpt lat="31.78312000" lon="34.99026000">
        <ele>334.00000</ele>
        <time>2010-01-01T00:24:33Z</time>
      </trkpt>
      <trkpt lat="31.78305000" lon="34.99006000">
        <ele>332.00000</ele>
        <time>2010-01-01T00:24:40Z</time>
      </trkpt>
      <trkpt lat="31.78297000" lon="34.98994000">
        <ele>332.00000</ele>
        <time>2010-01-01T00:24:45Z</time>
      </trkpt>
      <trkpt lat="31.78286000" lon="34.98987000">
        <ele>332.00000</ele>
        <time>2010-01-01T00:24:50Z</time>
      </trkpt>
      <trkpt lat="31.78277000" lon="34.98986000">
        <ele>333.00000</ele>
        <time>2010-01-01T00:24:54Z</time>
      </trkpt>
      <trkpt lat="31.78264000" lon="34.98991000">
        <ele>335.00000</ele>
        <time>2010-01-01T00:24:59Z</time>
      </trkpt>
      <trkpt lat="31.78234000" lon="34.98999000">
        <ele>335.00000</ele>
        <time>2010-01-01T00:25:12Z</time>
      </trkpt>
      <trkpt lat="31.78226000" lon="34.98999000">
        <ele>334.00000</ele>
        <time>2010-01-01T00:25:15Z</time>
      </trkpt>
      <trkpt lat="31.78207000" lon="34.98992000">
        <ele>331.00000</ele>
        <time>2010-01-01T00:25:23Z</time>
      </trkpt>
      <trkpt lat="31.78200000" lon="34.98994000">
        <ele>330.00000</ele>
        <time>2010-01-01T00:25:26Z</time>
      </trkpt>
      <trkpt lat="31.78195000" lon="34.98998000">
        <ele>330.00000</ele>
        <time>2010-01-01T00:25:28Z</time>
      </trkpt>
      <trkpt lat="31.78193000" lon="34.99005000">
        <ele>331.00000</ele>
        <time>2010-01-01T00:25:31Z</time>
      </trkpt>
      <trkpt lat="31.78193000" lon="34.99021000">
        <ele>332.00000</ele>
        <time>2010-01-01T00:25:36Z</time>
      </trkpt>
      <trkpt lat="31.78198000" lon="34.99071000">
        <ele>337.00000</ele>
        <time>2010-01-01T00:25:53Z</time>
      </trkpt>
      <trkpt lat="31.78199000" lon="34.99113000">
        <ele>340.00000</ele>
        <time>2010-01-01T00:26:08Z</time>
      </trkpt>
      <trkpt lat="31.78198000" lon="34.99123000">
        <ele>341.00000</ele>
        <time>2010-01-01T00:26:11Z</time>
      </trkpt>
      <trkpt lat="31.78193000" lon="34.99172000">
        <ele>343.00000</ele>
        <time>2010-01-01T00:26:28Z</time>
      </trkpt>
      <trkpt lat="31.78189000" lon="34.99188000">
        <ele>343.00000</ele>
        <time>2010-01-01T00:26:34Z</time>
      </trkpt>
      <trkpt lat="31.78180000" lon="34.99200000">
        <ele>343.00000</ele>
        <time>2010-01-01T00:26:39Z</time>
      </trkpt>
      <trkpt lat="31.78175000" lon="34.99202000">
        <ele>343.00000</ele>
        <time>2010-01-01T00:26:41Z</time>
      </trkpt>
      <trkpt lat="31.78168000" lon="34.99203000">
        <ele>342.00000</ele>
        <time>2010-01-01T00:26:44Z</time>
      </trkpt>
      <trkpt lat="31.78092000" lon="34.99178000">
        <ele>344.00000</ele>
        <time>2010-01-01T00:27:16Z</time>
      </trkpt>
      <trkpt lat="31.78039000" lon="34.99168000">
        <ele>345.00000</ele>
        <time>2010-01-01T00:27:37Z</time>
      </trkpt>
      <trkpt lat="31.78030000" lon="34.99164000">
        <ele>344.00000</ele>
        <time>2010-01-01T00:27:41Z</time>
      </trkpt>
      <trkpt lat="31.78017000" lon="34.99156000">
        <ele>344.00000</ele>
        <time>2010-01-01T00:27:47Z</time>
      </trkpt>
      <trkpt lat="31.77908000" lon="34.99074000">
        <ele>335.00000</ele>
        <time>2010-01-01T00:28:39Z</time>
      </trkpt>
      <trkpt lat="31.77876000" lon="34.99062000">
        <ele>335.00000</ele>
        <time>2010-01-01T00:28:52Z</time>
      </trkpt>
      <trkpt lat="31.77863000" lon="34.99051000">
        <ele>337.00000</ele>
        <time>2010-01-01T00:28:58Z</time>
      </trkpt>
      <trkpt lat="31.77853000" lon="34.99030000">
        <ele>340.00000</ele>
        <time>2010-01-01T00:29:07Z</time>
      </trkpt>
      <trkpt lat="31.77852000" lon="34.98951000">
        <ele>347.00000</ele>
        <time>2010-01-01T00:29:33Z</time>
      </trkpt>
      <trkpt lat="31.77852000" lon="34.98950000">
        <ele>347.00000</ele>
        <time>2010-01-01T00:29:34Z</time>
      </trkpt>
      <trkpt lat="31.77851000" lon="34.98932000">
        <ele>350.00000</ele>
        <time>2010-01-01T00:29:40Z</time>
      </trkpt>
      <trkpt lat="31.77856000" lon="34.98919000">
        <ele>350.00000</ele>
        <time>2010-01-01T00:29:45Z</time>
      </trkpt>
      <trkpt lat="31.77881000" lon="34.98865000">
        <ele>347.00000</ele>
        <time>2010-01-01T00:30:06Z</time>
      </trkpt>
      <trkpt lat="31.77882000" lon="34.98858000">
        <ele>346.00000</ele>
        <time>2010-01-01T00:30:08Z</time>
      </trkpt>
      <trkpt lat="31.77879000" lon="34.98845000">
        <ele>345.00000</ele>
        <time>2010-01-01T00:30:13Z</time>
      </trkpt>
      <trkpt lat="31.77872000" lon="34.98835000">
        <ele>345.00000</ele>
        <time>2010-01-01T00:30:17Z</time>
      </trkpt>
      <trkpt lat="31.77854000" lon="34.98818000">
        <ele>343.00000</ele>
        <time>2010-01-01T00:30:26Z</time>
      </trkpt>
      <trkpt lat="31.77844000" lon="34.98810000">
        <ele>342.00000</ele>
        <time>2010-01-01T00:30:31Z</time>
      </trkpt>
      <trkpt lat="31.77799000" lon="34.98794000">
        <ele>343.00000</ele>
        <time>2010-01-01T00:30:50Z</time>
      </trkpt>
      <trkpt lat="31.77758000" lon="34.98767000">
        <ele>339.00000</ele>
        <time>2010-01-01T00:31:09Z</time>
      </trkpt>
      <trkpt lat="31.77712000" lon="34.98724000">
        <ele>337.00000</ele>
        <time>2010-01-01T00:31:32Z</time>
      </trkpt>
      <trkpt lat="31.77692000" lon="34.98694000">
        <ele>338.00000</ele>
        <time>2010-01-01T00:31:45Z</time>
      </trkpt>
      <trkpt lat="31.77672000" lon="34.98659000">
        <ele>340.00000</ele>
        <time>2010-01-01T00:32:00Z</time>
      </trkpt>
      <trkpt lat="31.77669000" lon="34.98640000">
        <ele>341.00000</ele>
        <time>2010-01-01T00:32:06Z</time>
      </trkpt>
      <trkpt lat="31.77664000" lon="34.98624000">
        <ele>343.00000</ele>
        <time>2010-01-01T00:32:12Z</time>
      </trkpt>
      <trkpt lat="31.77651000" lon="34.98624000">
        <ele>346.00000</ele>
        <time>2010-01-01T00:32:17Z</time>
      </trkpt>
      <trkpt lat="31.77645000" lon="34.98626000">
        <ele>348.00000</ele>
        <time>2010-01-01T00:32:20Z</time>
      </trkpt>
      <trkpt lat="31.77637000" lon="34.98632000">
        <ele>349.00000</ele>
        <time>2010-01-01T00:32:24Z</time>
      </trkpt>
      <trkpt lat="31.77627000" lon="34.98646000">
        <ele>352.00000</ele>
        <time>2010-01-01T00:32:30Z</time>
      </trkpt>
      <trkpt lat="31.77610000" lon="34.98674000">
        <ele>353.00000</ele>
        <time>2010-01-01T00:32:41Z</time>
      </trkpt>
      <trkpt lat="31.77599000" lon="34.98686000">
        <ele>354.00000</ele>
        <time>2010-01-01T00:32:47Z</time>
      </trkpt>
      <trkpt lat="31.77563000" lon="34.98717000">
        <ele>356.00000</ele>
        <time>2010-01-01T00:33:05Z</time>
      </trkpt>
      <trkpt lat="31.77537000" lon="34.98726000">
        <ele>355.00000</ele>
        <time>2010-01-01T00:33:16Z</time>
      </trkpt>
      <trkpt lat="31.77536000" lon="34.98724000">
        <ele>355.00000</ele>
        <time>2010-01-01T00:33:17Z</time>
      </trkpt>
      <trkpt lat="31.77530000" lon="34.98721000">
        <ele>356.00000</ele>
        <time>2010-01-01T00:33:20Z</time>
      </trkpt>
      <trkpt lat="31.77525000" lon="34.98725000">
        <ele>355.00000</ele>
        <time>2010-01-01T00:33:22Z</time>
      </trkpt>
      <trkpt lat="31.77524000" lon="34.98728000">
        <ele>354.00000</ele>
        <time>2010-01-01T00:33:23Z</time>
      </trkpt>
      <trkpt lat="31.77467000" lon="34.98668000">
        <ele>362.00000</ele>
        <time>2010-01-01T00:33:54Z</time>
      </trkpt>
      <trkpt lat="31.77401000" lon="34.98607000">
        <ele>369.00000</ele>
        <time>2010-01-01T00:34:27Z</time>
      </trkpt>
      <trkpt lat="31.77401000" lon="34.98606000">
        <ele>369.00000</ele>
        <time>2010-01-01T00:34:28Z</time>
      </trkpt>
      <trkpt lat="31.77375000" lon="34.98579000">
        <ele>370.00000</ele>
        <time>2010-01-01T00:34:42Z</time>
      </trkpt>
      <trkpt lat="31.77363000" lon="34.98558000">
        <ele>371.00000</ele>
        <time>2010-01-01T00:34:50Z</time>
      </trkpt>
      <trkpt lat="31.77340000" lon="34.98516000">
        <ele>368.00000</ele>
        <time>2010-01-01T00:35:07Z</time>
      </trkpt>
      <trkpt lat="31.77334000" lon="34.98501000">
        <ele>369.00000</ele>
        <time>2010-01-01T00:35:13Z</time>
      </trkpt>
      <trkpt lat="31.77330000" lon="34.98485000">
        <ele>369.00000</ele>
        <time>2010-01-01T00:35:18Z</time>
      </trkpt>
      <trkpt lat="31.77329000" lon="34.98461000">
        <ele>371.00000</ele>
        <time>2010-01-01T00:35:27Z</time>
      </trkpt>
      <trkpt lat="31.77331000" lon="34.98395000">
        <ele>371.00000</ele>
        <time>2010-01-01T00:35:49Z</time>
      </trkpt>
      <trkpt lat="31.77294000" lon="34.98325000">
        <ele>369.00000</ele>
        <time>2010-01-01T00:36:17Z</time>
      </trkpt>
      <trkpt lat="31.77294000" lon="34.98324000">
        <ele>370.00000</ele>
        <time>2010-01-01T00:36:18Z</time>
      </trkpt>
      <trkpt lat="31.77237000" lon="34.98220000">
        <ele>367.00000</ele>
        <time>2010-01-01T00:37:00Z</time>
      </trkpt>
      <trkpt lat="31.77214000" lon="34.98193000">
        <ele>362.00000</ele>
        <time>2010-01-01T00:37:13Z</time>
      </trkpt>
      <trkpt lat="31.77208000" lon="34.98182000">
        <ele>360.00000</ele>
        <time>2010-01-01T00:37:17Z</time>
      </trkpt>
      <trkpt lat="31.77203000" lon="34.98136000">
        <ele>357.00000</ele>
        <time>2010-01-01T00:37:33Z</time>
      </trkpt>
      <trkpt lat="31.77198000" lon="34.98116000">
        <ele>354.00000</ele>
        <time>2010-01-01T00:37:40Z</time>
      </trkpt>
      <trkpt lat="31.77192000" lon="34.98100000">
        <ele>351.00000</ele>
        <time>2010-01-01T00:37:46Z</time>
      </trkpt>
      <trkpt lat="31.77183000" lon="34.98094000">
        <ele>347.00000</ele>
        <time>2010-01-01T00:37:50Z</time>
      </trkpt>
      <trkpt lat="31.77159000" lon="34.98085000">
        <ele>340.00000</ele>
        <time>2010-01-01T00:38:00Z</time>
      </trkpt>
      <trkpt lat="31.77153000" lon="34.98080000">
        <ele>338.00000</ele>
        <time>2010-01-01T00:38:03Z</time>
      </trkpt>
      <trkpt lat="31.77149000" lon="34.98073000">
        <ele>337.00000</ele>
        <time>2010-01-01T00:38:06Z</time>
      </trkpt>
      <trkpt lat="31.77148000" lon="34.98059000">
        <ele>337.00000</ele>
        <time>2010-01-01T00:38:11Z</time>
      </trkpt>
      <trkpt lat="31.77148000" lon="34.98058000">
        <ele>337.00000</ele>
        <time>2010-01-01T00:38:11Z</time>
      </trkpt>
      <trkpt lat="31.77147000" lon="34.98052000">
        <ele>337.00000</ele>
        <time>2010-01-01T00:38:13Z</time>
      </trkpt>
      <trkpt lat="31.77150000" lon="34.98039000">
        <ele>338.00000</ele>
        <time>2010-01-01T00:38:18Z</time>
      </trkpt>
      <trkpt lat="31.77154000" lon="34.98032000">
        <ele>339.00000</ele>
        <time>2010-01-01T00:38:21Z</time>
      </trkpt>
      <trkpt lat="31.77161000" lon="34.98023000">
        <ele>341.00000</ele>
        <time>2010-01-01T00:38:25Z</time>
      </trkpt>
      <trkpt lat="31.77186000" lon="34.98005000">
        <ele>346.00000</ele>
        <time>2010-01-01T00:38:37Z</time>
      </trkpt>
      <trkpt lat="31.77188000" lon="34.97998000">
        <ele>346.00000</ele>
        <time>2010-01-01T00:38:39Z</time>
      </trkpt>
      <trkpt lat="31.77187000" lon="34.97990000">
        <ele>347.00000</ele>
        <time>2010-01-01T00:38:42Z</time>
      </trkpt>
      <trkpt lat="31.77180000" lon="34.97981000">
        <ele>346.00000</ele>
        <time>2010-01-01T00:38:46Z</time>
      </trkpt>
      <trkpt lat="31.77135000" lon="34.97964000">
        <ele>339.00000</ele>
        <time>2010-01-01T00:39:05Z</time>
      </trkpt>
      <trkpt lat="31.77129000" lon="34.97963000">
        <ele>337.00000</ele>
        <time>2010-01-01T00:39:07Z</time>
      </trkpt>
      <trkpt lat="31.77115000" lon="34.97956000">
        <ele>335.00000</ele>
        <time>2010-01-01T00:39:13Z</time>
      </trkpt>
      <trkpt lat="31.77106000" lon="34.97948000">
        <ele>335.00000</ele>
        <time>2010-01-01T00:39:18Z</time>
      </trkpt>
      <trkpt lat="31.77088000" lon="34.97902000">
        <ele>339.00000</ele>
        <time>2010-01-01T00:39:35Z</time>
      </trkpt>
      <trkpt lat="31.77052000" lon="34.97848000">
        <ele>337.00000</ele>
        <time>2010-01-01T00:39:58Z</time>
      </trkpt>
      <trkpt lat="31.77038000" lon="34.97830000">
        <ele>336.00000</ele>
        <time>2010-01-01T00:40:07Z</time>
      </trkpt>
      <trkpt lat="31.77006000" lon="34.97794000">
        <ele>332.00000</ele>
        <time>2010-01-01T00:40:24Z</time>
      </trkpt>
      <trkpt lat="31.76980000" lon="34.97778000">
        <ele>329.00000</ele>
        <time>2010-01-01T00:40:36Z</time>
      </trkpt>
      <trkpt lat="31.76967000" lon="34.97759000">
        <ele>330.00000</ele>
        <time>2010-01-01T00:40:45Z</time>
      </trkpt>
      <trkpt lat="31.76955000" lon="34.97741000">
        <ele>330.00000</ele>
        <time>2010-01-01T00:40:52Z</time>
      </trkpt>
      <trkpt lat="31.76942000" lon="34.97717000">
        <ele>329.00000</ele>
        <time>2010-01-01T00:41:02Z</time>
      </trkpt>
      <trkpt lat="31.76938000" lon="34.97705000">
        <ele>328.00000</ele>
        <time>2010-01-01T00:41:06Z</time>
      </trkpt>
      <trkpt lat="31.76933000" lon="34.97681000">
        <ele>326.00000</ele>
        <time>2010-01-01T00:41:15Z</time>
      </trkpt>
      <trkpt lat="31.76936000" lon="34.97630000">
        <ele>326.00000</ele>
        <time>2010-01-01T00:41:32Z</time>
      </trkpt>
      <trkpt lat="31.76936000" lon="34.97624000">
        <ele>326.00000</ele>
        <time>2010-01-01T00:41:34Z</time>
      </trkpt>
      <trkpt lat="31.76926000" lon="34.97603000">
        <ele>326.00000</ele>
        <time>2010-01-01T00:41:42Z</time>
      </trkpt>
      <trkpt lat="31.76869000" lon="34.97572000">
        <ele>325.00000</ele>
        <time>2010-01-01T00:42:08Z</time>
      </trkpt>
      <trkpt lat="31.76750000" lon="34.97465000">
        <ele>327.00000</ele>
        <time>2010-01-01T00:43:08Z</time>
      </trkpt>
      <trkpt lat="31.76743000" lon="34.97457000">
        <ele>327.00000</ele>
        <time>2010-01-01T00:43:11Z</time>
      </trkpt>
      <trkpt lat="31.76728000" lon="34.97432000">
        <ele>327.00000</ele>
        <time>2010-01-01T00:43:22Z</time>
      </trkpt>
      <trkpt lat="31.76707000" lon="34.97383000">
        <ele>326.00000</ele>
        <time>2010-01-01T00:43:41Z</time>
      </trkpt>
      <trkpt lat="31.76694000" lon="34.97334000">
        <ele>327.00000</ele>
        <time>2010-01-01T00:43:58Z</time>
      </trkpt>
      <trkpt lat="31.76687000" lon="34.97302000">
        <ele>326.00000</ele>
        <time>2010-01-01T00:44:09Z</time>
      </trkpt>
      <trkpt lat="31.76685000" lon="34.97281000">
        <ele>324.00000</ele>
        <time>2010-01-01T00:44:16Z</time>
      </trkpt>
      <trkpt lat="31.76686000" lon="34.97268000">
        <ele>322.00000</ele>
        <time>2010-01-01T00:44:21Z</time>
      </trkpt>
      <trkpt lat="31.76691000" lon="34.97229000">
        <ele>319.00000</ele>
        <time>2010-01-01T00:44:34Z</time>
      </trkpt>
      <trkpt lat="31.76699000" lon="34.97205000">
        <ele>319.00000</ele>
        <time>2010-01-01T00:44:43Z</time>
      </trkpt>
      <trkpt lat="31.76706000" lon="34.97194000">
        <ele>319.00000</ele>
        <time>2010-01-01T00:44:48Z</time>
      </trkpt>
      <trkpt lat="31.76720000" lon="34.97178000">
        <ele>321.00000</ele>
        <time>2010-01-01T00:44:56Z</time>
      </trkpt>
      <trkpt lat="31.76766000" lon="34.97134000">
        <ele>325.00000</ele>
        <time>2010-01-01T00:45:19Z</time>
      </trkpt>
      <trkpt lat="31.76792000" lon="34.97118000">
        <ele>328.00000</ele>
        <time>2010-01-01T00:45:31Z</time>
      </trkpt>
      <trkpt lat="31.76811000" lon="34.97103000">
        <ele>331.00000</ele>
        <time>2010-01-01T00:45:40Z</time>
      </trkpt>
      <trkpt lat="31.76835000" lon="34.97078000">
        <ele>332.00000</ele>
        <time>2010-01-01T00:45:53Z</time>
      </trkpt>
      <trkpt lat="31.76864000" lon="34.97036000">
        <ele>328.00000</ele>
        <time>2010-01-01T00:46:11Z</time>
      </trkpt>
      <trkpt lat="31.76897000" lon="34.96993000">
        <ele>330.00000</ele>
        <time>2010-01-01T00:46:31Z</time>
      </trkpt>
      <trkpt lat="31.76903000" lon="34.96983000">
        <ele>331.00000</ele>
        <time>2010-01-01T00:46:35Z</time>
      </trkpt>
      <trkpt lat="31.76908000" lon="34.96969000">
        <ele>330.00000</ele>
        <time>2010-01-01T00:46:40Z</time>
      </trkpt>
      <trkpt lat="31.76912000" lon="34.96952000">
        <ele>330.00000</ele>
        <time>2010-01-01T00:46:46Z</time>
      </trkpt>
      <trkpt lat="31.76913000" lon="34.96941000">
        <ele>329.00000</ele>
        <time>2010-01-01T00:46:50Z</time>
      </trkpt>
      <trkpt lat="31.76910000" lon="34.96883000">
        <ele>325.00000</ele>
        <time>2010-01-01T00:47:10Z</time>
      </trkpt>
      <trkpt lat="31.76912000" lon="34.96792000">
        <ele>319.00000</ele>
        <time>2010-01-01T00:47:41Z</time>
      </trkpt>
      <trkpt lat="31.76907000" lon="34.96741000">
        <ele>315.00000</ele>
        <time>2010-01-01T00:47:58Z</time>
      </trkpt>
      <trkpt lat="31.76907000" lon="34.96740000">
        <ele>315.00000</ele>
        <time>2010-01-01T00:47:59Z</time>
      </trkpt>
      <trkpt lat="31.76902000" lon="34.96717000">
        <ele>314.00000</ele>
        <time>2010-01-01T00:48:07Z</time>
      </trkpt>
      <trkpt lat="31.76881000" lon="34.96655000">
        <ele>305.00000</ele>
        <time>2010-01-01T00:48:30Z</time>
      </trkpt>
      <trkpt lat="31.76879000" lon="34.96643000">
        <ele>304.00000</ele>
        <time>2010-01-01T00:48:34Z</time>
      </trkpt>
      <trkpt lat="31.76881000" lon="34.96603000">
        <ele>307.00000</ele>
        <time>2010-01-01T00:48:47Z</time>
      </trkpt>
      <trkpt lat="31.76880000" lon="34.96594000">
        <ele>308.00000</ele>
        <time>2010-01-01T00:48:51Z</time>
      </trkpt>
      <trkpt lat="31.76873000" lon="34.96577000">
        <ele>308.00000</ele>
        <time>2010-01-01T00:48:57Z</time>
      </trkpt>
      <trkpt lat="31.76843000" lon="34.96543000">
        <ele>306.00000</ele>
        <time>2010-01-01T00:49:14Z</time>
      </trkpt>
      <trkpt lat="31.76835000" lon="34.96530000">
        <ele>305.00000</ele>
        <time>2010-01-01T00:49:19Z</time>
      </trkpt>
      <trkpt lat="31.76815000" lon="34.96492000">
        <ele>302.00000</ele>
        <time>2010-01-01T00:49:34Z</time>
      </trkpt>
      <trkpt lat="31.76810000" lon="34.96479000">
        <ele>300.00000</ele>
        <time>2010-01-01T00:49:39Z</time>
      </trkpt>
      <trkpt lat="31.76808000" lon="34.96458000">
        <ele>300.00000</ele>
        <time>2010-01-01T00:49:46Z</time>
      </trkpt>
      <trkpt lat="31.76810000" lon="34.96449000">
        <ele>301.00000</ele>
        <time>2010-01-01T00:49:50Z</time>
      </trkpt>
      <trkpt lat="31.76820000" lon="34.96425000">
        <ele>303.00000</ele>
        <time>2010-01-01T00:49:59Z</time>
      </trkpt>
      <trkpt lat="31.76857000" lon="34.96361000">
        <ele>305.00000</ele>
        <time>2010-01-01T00:50:25Z</time>
      </trkpt>
      <trkpt lat="31.76867000" lon="34.96349000">
        <ele>306.00000</ele>
        <time>2010-01-01T00:50:31Z</time>
      </trkpt>
      <trkpt lat="31.76878000" lon="34.96343000">
        <ele>307.00000</ele>
        <time>2010-01-01T00:50:36Z</time>
      </trkpt>
      <trkpt lat="31.76928000" lon="34.96352000">
        <ele>317.00000</ele>
        <time>2010-01-01T00:50:56Z</time>
      </trkpt>
      <trkpt lat="31.76927000" lon="34.96352000">
        <ele>317.00000</ele>
        <time>2010-01-01T00:50:56Z</time>
      </trkpt>
      <trkpt lat="31.76949000" lon="34.96352000">
        <ele>319.00000</ele>
        <time>2010-01-01T00:51:05Z</time>
      </trkpt>
      <trkpt lat="31.76959000" lon="34.96350000">
        <ele>319.00000</ele>
        <time>2010-01-01T00:51:09Z</time>
      </trkpt>
      <trkpt lat="31.76971000" lon="34.96342000">
        <ele>320.00000</ele>
        <time>2010-01-01T00:51:15Z</time>
      </trkpt>
      <trkpt lat="31.77006000" lon="34.96303000">
        <ele>320.00000</ele>
        <time>2010-01-01T00:51:34Z</time>
      </trkpt>
      <trkpt lat="31.77017000" lon="34.96287000">
        <ele>320.00000</ele>
        <time>2010-01-01T00:51:41Z</time>
      </trkpt>
      <trkpt lat="31.77066000" lon="34.96206000">
        <ele>327.00000</ele>
        <time>2010-01-01T00:52:15Z</time>
      </trkpt>
      <trkpt lat="31.77081000" lon="34.96173000">
        <ele>326.00000</ele>
        <time>2010-01-01T00:52:27Z</time>
      </trkpt>
      <trkpt lat="31.77090000" lon="34.96158000">
        <ele>324.00000</ele>
        <time>2010-01-01T00:52:34Z</time>
      </trkpt>
      <trkpt lat="31.77098000" lon="34.96150000">
        <ele>323.00000</ele>
        <time>2010-01-01T00:52:38Z</time>
      </trkpt>
      <trkpt lat="31.77108000" lon="34.96144000">
        <ele>324.00000</ele>
        <time>2010-01-01T00:52:42Z</time>
      </trkpt>
      <trkpt lat="31.77129000" lon="34.96138000">
        <ele>327.00000</ele>
        <time>2010-01-01T00:52:51Z</time>
      </trkpt>
      <trkpt lat="31.77141000" lon="34.96138000">
        <ele>330.00000</ele>
        <time>2010-01-01T00:52:56Z</time>
      </trkpt>
      <trkpt lat="31.77170000" lon="34.96148000">
        <ele>333.00000</ele>
        <time>2010-01-01T00:53:08Z</time>
      </trkpt>
      <trkpt lat="31.77176000" lon="34.96152000">
        <ele>333.00000</ele>
        <time>2010-01-01T00:53:11Z</time>
      </trkpt>
      <trkpt lat="31.77178000" lon="34.96156000">
        <ele>334.00000</ele>
        <time>2010-01-01T00:53:12Z</time>
      </trkpt>
      <trkpt lat="31.77178000" lon="34.96155000">
        <ele>334.00000</ele>
        <time>2010-01-01T00:53:13Z</time>
      </trkpt>
      <trkpt lat="31.77184000" lon="34.96166000">
        <ele>336.00000</ele>
        <time>2010-01-01T00:53:17Z</time>
      </trkpt>
      <trkpt lat="31.77207000" lon="34.96252000">
        <ele>344.00000</ele>
        <time>2010-01-01T00:53:48Z</time>
      </trkpt>
      <trkpt lat="31.77208000" lon="34.96260000">
        <ele>345.00000</ele>
        <time>2010-01-01T00:53:50Z</time>
      </trkpt>
      <trkpt lat="31.77208000" lon="34.96259000">
        <ele>345.00000</ele>
        <time>2010-01-01T00:53:51Z</time>
      </trkpt>
      <trkpt lat="31.77208000" lon="34.96263000">
        <ele>346.00000</ele>
        <time>2010-01-01T00:53:52Z</time>
      </trkpt>
      <trkpt lat="31.77203000" lon="34.96278000">
        <ele>349.00000</ele>
        <time>2010-01-01T00:53:58Z</time>
      </trkpt>
      <trkpt lat="31.77194000" lon="34.96290000">
        <ele>350.00000</ele>
        <time>2010-01-01T00:54:03Z</time>
      </trkpt>
      <trkpt lat="31.77078000" lon="34.96350000">
        <ele>341.00000</ele>
        <time>2010-01-01T00:54:54Z</time>
      </trkpt>
      <trkpt lat="31.77001000" lon="34.96397000">
        <ele>329.00000</ele>
        <time>2010-01-01T00:55:29Z</time>
      </trkpt>
      <trkpt lat="31.76993000" lon="34.96404000">
        <ele>329.00000</ele>
        <time>2010-01-01T00:55:33Z</time>
      </trkpt>
      <trkpt lat="31.76984000" lon="34.96420000">
        <ele>330.00000</ele>
        <time>2010-01-01T00:55:39Z</time>
      </trkpt>
      <trkpt lat="31.76981000" lon="34.96434000">
        <ele>331.00000</ele>
        <time>2010-01-01T00:55:44Z</time>
      </trkpt>
      <trkpt lat="31.76982000" lon="34.96442000">
        <ele>332.00000</ele>
        <time>2010-01-01T00:55:47Z</time>
      </trkpt>
      <trkpt lat="31.76984000" lon="34.96454000">
        <ele>333.00000</ele>
        <time>2010-01-01T00:55:51Z</time>
      </trkpt>
      <trkpt lat="31.76991000" lon="34.96464000">
        <ele>333.00000</ele>
        <time>2010-01-01T00:55:55Z</time>
      </trkpt>
      <trkpt lat="31.77033000" lon="34.96488000">
        <ele>338.00000</ele>
        <time>2010-01-01T00:56:14Z</time>
      </trkpt>
      <trkpt lat="31.77083000" lon="34.96508000">
        <ele>338.00000</ele>
        <time>2010-01-01T00:56:35Z</time>
      </trkpt>
      <trkpt lat="31.77105000" lon="34.96522000">
        <ele>340.00000</ele>
        <time>2010-01-01T00:56:45Z</time>
      </trkpt>
      <trkpt lat="31.77119000" lon="34.96537000">
        <ele>342.00000</ele>
        <time>2010-01-01T00:56:53Z</time>
      </trkpt>
      <trkpt lat="31.77125000" lon="34.96547000">
        <ele>343.00000</ele>
        <time>2010-01-01T00:56:57Z</time>
      </trkpt>
      <trkpt lat="31.77124000" lon="34.96547000">
        <ele>343.00000</ele>
        <time>2010-01-01T00:56:57Z</time>
      </trkpt>
      <trkpt lat="31.77130000" lon="34.96561000">
        <ele>345.00000</ele>
        <time>2010-01-01T00:57:03Z</time>
      </trkpt>
      <trkpt lat="31.77132000" lon="34.96574000">
        <ele>347.00000</ele>
        <time>2010-01-01T00:57:07Z</time>
      </trkpt>
      <trkpt lat="31.77132000" lon="34.96612000">
        <ele>350.00000</ele>
        <time>2010-01-01T00:57:20Z</time>
      </trkpt>
      <trkpt lat="31.77129000" lon="34.96626000">
        <ele>351.00000</ele>
        <time>2010-01-01T00:57:25Z</time>
      </trkpt>
      <trkpt lat="31.77092000" lon="34.96747000">
        <ele>359.00000</ele>
        <time>2010-01-01T00:58:09Z</time>
      </trkpt>
      <trkpt lat="31.77061000" lon="34.96838000">
        <ele>365.00000</ele>
        <time>2010-01-01T00:58:42Z</time>
      </trkpt>
      <trkpt lat="31.77031000" lon="34.96938000">
        <ele>367.00000</ele>
        <time>2010-01-01T00:59:18Z</time>
      </trkpt>
      <trkpt lat="31.77029000" lon="34.96952000">
        <ele>367.00000</ele>
        <time>2010-01-01T00:59:23Z</time>
      </trkpt>
      <trkpt lat="31.77030000" lon="34.96982000">
        <ele>366.00000</ele>
        <time>2010-01-01T00:59:33Z</time>
      </trkpt>
      <trkpt lat="31.77030000" lon="34.96981000">
        <ele>366.00000</ele>
        <time>2010-01-01T00:59:34Z</time>
      </trkpt>
      <trkpt lat="31.77030000" lon="34.97011000">
        <ele>367.00000</ele>
        <time>2010-01-01T00:59:44Z</time>
      </trkpt>
      <trkpt lat="31.77035000" lon="34.97056000">
        <ele>368.00000</ele>
        <time>2010-01-01T00:59:59Z</time>
      </trkpt>
      <trkpt lat="31.77047000" lon="34.97099000">
        <ele>371.00000</ele>
        <time>2010-01-01T01:00:15Z</time>
      </trkpt>
      <trkpt lat="31.77054000" lon="34.97105000">
        <ele>371.00000</ele>
        <time>2010-01-01T01:00:18Z</time>
      </trkpt>
      <trkpt lat="31.77060000" lon="34.97108000">
        <ele>371.00000</ele>
        <time>2010-01-01T01:00:21Z</time>
      </trkpt>
      <trkpt lat="31.77067000" lon="34.97107000">
        <ele>371.00000</ele>
        <time>2010-01-01T01:00:24Z</time>
      </trkpt>
      <trkpt lat="31.77121000" lon="34.97061000">
        <ele>367.00000</ele>
        <time>2010-01-01T01:00:50Z</time>
      </trkpt>
      <trkpt lat="31.77141000" lon="34.97046000">
        <ele>367.00000</ele>
        <time>2010-01-01T01:01:00Z</time>
      </trkpt>
      <trkpt lat="31.77152000" lon="34.97044000">
        <ele>368.00000</ele>
        <time>2010-01-01T01:01:04Z</time>
      </trkpt>
      <trkpt lat="31.77159000" lon="34.97045000">
        <ele>369.00000</ele>
        <time>2010-01-01T01:01:07Z</time>
      </trkpt>
      <trkpt lat="31.77166000" lon="34.97049000">
        <ele>370.00000</ele>
        <time>2010-01-01T01:01:10Z</time>
      </trkpt>
      <trkpt lat="31.77180000" lon="34.97067000">
        <ele>372.00000</ele>
        <time>2010-01-01T01:01:18Z</time>
      </trkpt>
      <trkpt lat="31.77198000" lon="34.97126000">
        <ele>375.00000</ele>
        <time>2010-01-01T01:01:40Z</time>
      </trkpt>
      <trkpt lat="31.77206000" lon="34.97147000">
        <ele>374.00000</ele>
        <time>2010-01-01T01:01:48Z</time>
      </trkpt>
      <trkpt lat="31.77214000" lon="34.97161000">
        <ele>375.00000</ele>
        <time>2010-01-01T01:01:53Z</time>
      </trkpt>
      <trkpt lat="31.77250000" lon="34.97208000">
        <ele>375.00000</ele>
        <time>2010-01-01T01:02:15Z</time>
      </trkpt>
      <trkpt lat="31.77250000" lon="34.97207000">
        <ele>375.00000</ele>
        <time>2010-01-01T01:02:15Z</time>
      </trkpt>
      <trkpt lat="31.77258000" lon="34.97222000">
        <ele>376.00000</ele>
        <time>2010-01-01T01:02:21Z</time>
      </trkpt>
      <trkpt lat="31.77263000" lon="34.97244000">
        <ele>375.00000</ele>
        <time>2010-01-01T01:02:29Z</time>
      </trkpt>
      <trkpt lat="31.77260000" lon="34.97259000">
        <ele>375.00000</ele>
        <time>2010-01-01T01:02:34Z</time>
      </trkpt>
      <trkpt lat="31.77254000" lon="34.97276000">
        <ele>375.00000</ele>
        <time>2010-01-01T01:02:40Z</time>
      </trkpt>
      <trkpt lat="31.77242000" lon="34.97299000">
        <ele>378.00000</ele>
        <time>2010-01-01T01:02:50Z</time>
      </trkpt>
      <trkpt lat="31.77220000" lon="34.97325000">
        <ele>383.00000</ele>
        <time>2010-01-01T01:03:02Z</time>
      </trkpt>
      <trkpt lat="31.77180000" lon="34.97361000">
        <ele>387.00000</ele>
        <time>2010-01-01T01:03:22Z</time>
      </trkpt>
      <trkpt lat="31.77169000" lon="34.97376000">
        <ele>388.00000</ele>
        <time>2010-01-01T01:03:29Z</time>
      </trkpt>
      <trkpt lat="31.77160000" lon="34.97391000">
        <ele>389.00000</ele>
        <time>2010-01-01T01:03:35Z</time>
      </trkpt>
      <trkpt lat="31.77156000" lon="34.97405000">
        <ele>390.00000</ele>
        <time>2010-01-01T01:03:40Z</time>
      </trkpt>
      <trkpt lat="31.77153000" lon="34.97419000">
        <ele>390.00000</ele>
        <time>2010-01-01T01:03:45Z</time>
      </trkpt>
      <trkpt lat="31.77154000" lon="34.97448000">
        <ele>389.00000</ele>
        <time>2010-01-01T01:03:55Z</time>
      </trkpt>
      <trkpt lat="31.77156000" lon="34.97461000">
        <ele>389.00000</ele>
        <time>2010-01-01T01:04:00Z</time>
      </trkpt>
      <trkpt lat="31.77161000" lon="34.97473000">
        <ele>389.00000</ele>
        <time>2010-01-01T01:04:04Z</time>
      </trkpt>
      <trkpt lat="31.77175000" lon="34.97497000">
        <ele>390.00000</ele>
        <time>2010-01-01T01:04:14Z</time>
      </trkpt>
      <trkpt lat="31.77229000" lon="34.97561000">
        <ele>389.00000</ele>
        <time>2010-01-01T01:04:45Z</time>
      </trkpt>
      <trkpt lat="31.77274000" lon="34.97626000">
        <ele>388.00000</ele>
        <time>2010-01-01T01:05:13Z</time>
      </trkpt>
      <trkpt lat="31.77293000" lon="34.97658000">
        <ele>387.00000</ele>
        <time>2010-01-01T01:05:27Z</time>
      </trkpt>
      <trkpt lat="31.77298000" lon="34.97671000">
        <ele>386.00000</ele>
        <time>2010-01-01T01:05:31Z</time>
      </trkpt>
      <trkpt lat="31.77303000" lon="34.97701000">
        <ele>386.00000</ele>
        <time>2010-01-01T01:05:42Z</time>
      </trkpt>
      <trkpt lat="31.77300000" lon="34.97723000">
        <ele>386.00000</ele>
        <time>2010-01-01T01:05:49Z</time>
      </trkpt>
      <trkpt lat="31.77300000" lon="34.97747000">
        <ele>385.00000</ele>
        <time>2010-01-01T01:05:58Z</time>
      </trkpt>
      <trkpt lat="31.77296000" lon="34.97772000">
        <ele>385.00000</ele>
        <time>2010-01-01T01:06:06Z</time>
      </trkpt>
      <trkpt lat="31.77297000" lon="34.97790000">
        <ele>384.00000</ele>
        <time>2010-01-01T01:06:12Z</time>
      </trkpt>
      <trkpt lat="31.77306000" lon="34.97840000">
        <ele>380.00000</ele>
        <time>2010-01-01T01:06:30Z</time>
      </trkpt>
      <trkpt lat="31.77311000" lon="34.97858000">
        <ele>379.00000</ele>
        <time>2010-01-01T01:06:36Z</time>
      </trkpt>
      <trkpt lat="31.77311000" lon="34.97857000">
        <ele>379.00000</ele>
        <time>2010-01-01T01:06:37Z</time>
      </trkpt>
      <trkpt lat="31.77337000" lon="34.97908000">
        <ele>377.00000</ele>
        <time>2010-01-01T01:06:57Z</time>
      </trkpt>
      <trkpt lat="31.77349000" lon="34.97912000">
        <ele>379.00000</ele>
        <time>2010-01-01T01:07:02Z</time>
      </trkpt>
      <trkpt lat="31.77374000" lon="34.97912000">
        <ele>383.00000</ele>
        <time>2010-01-01T01:07:12Z</time>
      </trkpt>
      <trkpt lat="31.77388000" lon="34.97904000">
        <ele>384.00000</ele>
        <time>2010-01-01T01:07:18Z</time>
      </trkpt>
      <trkpt lat="31.77401000" lon="34.97890000">
        <ele>386.00000</ele>
        <time>2010-01-01T01:07:25Z</time>
      </trkpt>
      <trkpt lat="31.77420000" lon="34.97843000">
        <ele>383.00000</ele>
        <time>2010-01-01T01:07:43Z</time>
      </trkpt>
      <trkpt lat="31.77445000" lon="34.97821000">
        <ele>385.00000</ele>
        <time>2010-01-01T01:07:55Z</time>
      </trkpt>
      <trkpt lat="31.77480000" lon="34.97819000">
        <ele>389.00000</ele>
        <time>2010-01-01T01:08:09Z</time>
      </trkpt>
      <trkpt lat="31.77533000" lon="34.97832000">
        <ele>395.00000</ele>
        <time>2010-01-01T01:08:31Z</time>
      </trkpt>
      <trkpt lat="31.77532000" lon="34.97832000">
        <ele>395.00000</ele>
        <time>2010-01-01T01:08:31Z</time>
      </trkpt>
      <trkpt lat="31.77580000" lon="34.97841000">
        <ele>398.00000</ele>
        <time>2010-01-01T01:08:51Z</time>
      </trkpt>
      <trkpt lat="31.77594000" lon="34.97824000">
        <ele>398.00000</ele>
        <time>2010-01-01T01:08:59Z</time>
      </trkpt>
      <trkpt lat="31.77632000" lon="34.97736000">
        <ele>394.00000</ele>
        <time>2010-01-01T01:09:32Z</time>
      </trkpt>
      <trkpt lat="31.77642000" lon="34.97719000">
        <ele>395.00000</ele>
        <time>2010-01-01T01:09:40Z</time>
      </trkpt>
      <trkpt lat="31.77592000" lon="34.97665000">
        <ele>394.00000</ele>
        <time>2010-01-01T01:10:07Z</time>
      </trkpt>
      <trkpt lat="31.77579000" lon="34.97649000">
        <ele>392.00000</ele>
        <time>2010-01-01T01:10:14Z</time>
      </trkpt>
      <trkpt lat="31.77564000" lon="34.97626000">
        <ele>389.00000</ele>
        <time>2010-01-01T01:10:24Z</time>
      </trkpt>
      <trkpt lat="31.77557000" lon="34.97609000">
        <ele>387.00000</ele>
        <time>2010-01-01T01:10:31Z</time>
      </trkpt>
      <trkpt lat="31.77554000" lon="34.97596000">
        <ele>387.00000</ele>
        <time>2010-01-01T01:10:35Z</time>
      </trkpt>
      <trkpt lat="31.77552000" lon="34.97583000">
        <ele>387.00000</ele>
        <time>2010-01-01T01:10:40Z</time>
      </trkpt>
      <trkpt lat="31.77554000" lon="34.97566000">
        <ele>386.00000</ele>
        <time>2010-01-01T01:10:45Z</time>
      </trkpt>
      <trkpt lat="31.77559000" lon="34.97548000">
        <ele>385.00000</ele>
        <time>2010-01-01T01:10:52Z</time>
      </trkpt>
      <trkpt lat="31.77584000" lon="34.97487000">
        <ele>384.00000</ele>
        <time>2010-01-01T01:11:15Z</time>
      </trkpt>
      <trkpt lat="31.77593000" lon="34.97468000">
        <ele>384.00000</ele>
        <time>2010-01-01T01:11:22Z</time>
      </trkpt>
      <trkpt lat="31.77590000" lon="34.97448000">
        <ele>382.00000</ele>
        <time>2010-01-01T01:11:29Z</time>
      </trkpt>
      <trkpt lat="31.77583000" lon="34.97432000">
        <ele>381.00000</ele>
        <time>2010-01-01T01:11:35Z</time>
      </trkpt>
      <trkpt lat="31.77566000" lon="34.97410000">
        <ele>382.00000</ele>
        <time>2010-01-01T01:11:45Z</time>
      </trkpt>
      <trkpt lat="31.77536000" lon="34.97379000">
        <ele>382.00000</ele>
        <time>2010-01-01T01:12:01Z</time>
      </trkpt>
      <trkpt lat="31.77523000" lon="34.97356000">
        <ele>381.00000</ele>
        <time>2010-01-01T01:12:11Z</time>
      </trkpt>
      <trkpt lat="31.77519000" lon="34.97340000">
        <ele>381.00000</ele>
        <time>2010-01-01T01:12:17Z</time>
      </trkpt>
      <trkpt lat="31.77519000" lon="34.97325000">
        <ele>380.00000</ele>
        <time>2010-01-01T01:12:22Z</time>
      </trkpt>
      <trkpt lat="31.77521000" lon="34.97311000">
        <ele>380.00000</ele>
        <time>2010-01-01T01:12:26Z</time>
      </trkpt>
      <trkpt lat="31.77542000" lon="34.97246000">
        <ele>379.00000</ele>
        <time>2010-01-01T01:12:50Z</time>
      </trkpt>
      <trkpt lat="31.77546000" lon="34.97228000">
        <ele>380.00000</ele>
        <time>2010-01-01T01:12:56Z</time>
      </trkpt>
      <trkpt lat="31.77547000" lon="34.97211000">
        <ele>380.00000</ele>
        <time>2010-01-01T01:13:02Z</time>
      </trkpt>
      <trkpt lat="31.77547000" lon="34.97131000">
        <ele>378.00000</ele>
        <time>2010-01-01T01:13:29Z</time>
      </trkpt>
      <trkpt lat="31.77546000" lon="34.97131000">
        <ele>378.00000</ele>
        <time>2010-01-01T01:13:30Z</time>
      </trkpt>
      <trkpt lat="31.77552000" lon="34.97103000">
        <ele>376.00000</ele>
        <time>2010-01-01T01:13:40Z</time>
      </trkpt>
      <trkpt lat="31.77558000" lon="34.97091000">
        <ele>375.00000</ele>
        <time>2010-01-01T01:13:44Z</time>
      </trkpt>
      <trkpt lat="31.77564000" lon="34.97086000">
        <ele>375.00000</ele>
        <time>2010-01-01T01:13:47Z</time>
      </trkpt>
      <trkpt lat="31.77579000" lon="34.97079000">
        <ele>376.00000</ele>
        <time>2010-01-01T01:13:54Z</time>
      </trkpt>
      <trkpt lat="31.77617000" lon="34.97074000">
        <ele>377.00000</ele>
        <time>2010-01-01T01:14:09Z</time>
      </trkpt>
      <trkpt lat="31.77639000" lon="34.97069000">
        <ele>375.00000</ele>
        <time>2010-01-01T01:14:18Z</time>
      </trkpt>
      <trkpt lat="31.77671000" lon="34.97058000">
        <ele>372.00000</ele>
        <time>2010-01-01T01:14:31Z</time>
      </trkpt>
      <trkpt lat="31.77679000" lon="34.97053000">
        <ele>372.00000</ele>
        <time>2010-01-01T01:14:35Z</time>
      </trkpt>
      <trkpt lat="31.77691000" lon="34.97040000">
        <ele>372.00000</ele>
        <time>2010-01-01T01:14:42Z</time>
      </trkpt>
      <trkpt lat="31.77694000" lon="34.97033000">
        <ele>371.00000</ele>
        <time>2010-01-01T01:14:44Z</time>
      </trkpt>
      <trkpt lat="31.77697000" lon="34.97025000">
        <ele>371.00000</ele>
        <time>2010-01-01T01:14:47Z</time>
      </trkpt>
      <trkpt lat="31.77698000" lon="34.97004000">
        <ele>373.00000</ele>
        <time>2010-01-01T01:14:54Z</time>
      </trkpt>
      <trkpt lat="31.77688000" lon="34.96925000">
        <ele>372.00000</ele>
        <time>2010-01-01T01:15:22Z</time>
      </trkpt>
      <trkpt lat="31.77686000" lon="34.96881000">
        <ele>372.00000</ele>
        <time>2010-01-01T01:15:37Z</time>
      </trkpt>
      <trkpt lat="31.77680000" lon="34.96858000">
        <ele>375.00000</ele>
        <time>2010-01-01T01:15:45Z</time>
      </trkpt>
      <trkpt lat="31.77668000" lon="34.96832000">
        <ele>377.00000</ele>
        <time>2010-01-01T01:15:55Z</time>
      </trkpt>
      <trkpt lat="31.77649000" lon="34.96806000">
        <ele>375.00000</ele>
        <time>2010-01-01T01:16:07Z</time>
      </trkpt>
      <trkpt lat="31.77648000" lon="34.96806000">
        <ele>374.00000</ele>
        <time>2010-01-01T01:16:07Z</time>
      </trkpt>
      <trkpt lat="31.77625000" lon="34.96779000">
        <ele>372.00000</ele>
        <time>2010-01-01T01:16:20Z</time>
      </trkpt>
      <trkpt lat="31.77594000" lon="34.96747000">
        <ele>369.00000</ele>
        <time>2010-01-01T01:16:36Z</time>
      </trkpt>
      <trkpt lat="31.77587000" lon="34.96738000">
        <ele>368.00000</ele>
        <time>2010-01-01T01:16:41Z</time>
      </trkpt>
      <trkpt lat="31.77581000" lon="34.96724000">
        <ele>367.00000</ele>
        <time>2010-01-01T01:16:46Z</time>
      </trkpt>
      <trkpt lat="31.77580000" lon="34.96714000">
        <ele>367.00000</ele>
        <time>2010-01-01T01:16:49Z</time>
      </trkpt>
      <trkpt lat="31.77580000" lon="34.96706000">
        <ele>366.00000</ele>
        <time>2010-01-01T01:16:52Z</time>
      </trkpt>
      <trkpt lat="31.77585000" lon="34.96695000">
        <ele>367.00000</ele>
        <time>2010-01-01T01:16:56Z</time>
      </trkpt>
      <trkpt lat="31.77590000" lon="34.96688000">
        <ele>365.00000</ele>
        <time>2010-01-01T01:16:59Z</time>
      </trkpt>
      <trkpt lat="31.77600000" lon="34.96680000">
        <ele>364.00000</ele>
        <time>2010-01-01T01:17:04Z</time>
      </trkpt>
      <trkpt lat="31.77608000" lon="34.96676000">
        <ele>364.00000</ele>
        <time>2010-01-01T01:17:08Z</time>
      </trkpt>
      <trkpt lat="31.77621000" lon="34.96675000">
        <ele>363.00000</ele>
        <time>2010-01-01T01:17:13Z</time>
      </trkpt>
      <trkpt lat="31.77683000" lon="34.96687000">
        <ele>360.00000</ele>
        <time>2010-01-01T01:17:38Z</time>
      </trkpt>
      <trkpt lat="31.77682000" lon="34.96687000">
        <ele>360.00000</ele>
        <time>2010-01-01T01:17:39Z</time>
      </trkpt>
      <trkpt lat="31.77702000" lon="34.96688000">
        <ele>360.00000</ele>
        <time>2010-01-01T01:17:47Z</time>
      </trkpt>
      <trkpt lat="31.77711000" lon="34.96687000">
        <ele>360.00000</ele>
        <time>2010-01-01T01:17:50Z</time>
      </trkpt>
      <trkpt lat="31.77747000" lon="34.96677000">
        <ele>359.00000</ele>
        <time>2010-01-01T01:18:05Z</time>
      </trkpt>
      <trkpt lat="31.77796000" lon="34.96653000">
        <ele>354.00000</ele>
        <time>2010-01-01T01:18:26Z</time>
      </trkpt>
      <trkpt lat="31.77814000" lon="34.96649000">
        <ele>353.00000</ele>
        <time>2010-01-01T01:18:34Z</time>
      </trkpt>
      <trkpt lat="31.77827000" lon="34.96657000">
        <ele>354.00000</ele>
        <time>2010-01-01T01:18:39Z</time>
      </trkpt>
      <trkpt lat="31.77843000" lon="34.96679000">
        <ele>352.00000</ele>
        <time>2010-01-01T01:18:49Z</time>
      </trkpt>
      <trkpt lat="31.77846000" lon="34.96690000">
        <ele>353.00000</ele>
        <time>2010-01-01T01:18:53Z</time>
      </trkpt>
      <trkpt lat="31.77855000" lon="34.96744000">
        <ele>353.00000</ele>
        <time>2010-01-01T01:19:12Z</time>
      </trkpt>
      <trkpt lat="31.77855000" lon="34.96743000">
        <ele>353.00000</ele>
        <time>2010-01-01T01:19:12Z</time>
      </trkpt>
      <trkpt lat="31.77884000" lon="34.96872000">
        <ele>348.00000</ele>
        <time>2010-01-01T01:19:58Z</time>
      </trkpt>
      <trkpt lat="31.77889000" lon="34.96909000">
        <ele>348.00000</ele>
        <time>2010-01-01T01:20:10Z</time>
      </trkpt>
      <trkpt lat="31.77892000" lon="34.96921000">
        <ele>349.00000</ele>
        <time>2010-01-01T01:20:15Z</time>
      </trkpt>
      <trkpt lat="31.77901000" lon="34.96927000">
        <ele>350.00000</ele>
        <time>2010-01-01T01:20:19Z</time>
      </trkpt>
      <trkpt lat="31.77909000" lon="34.96919000">
        <ele>350.00000</ele>
        <time>2010-01-01T01:20:23Z</time>
      </trkpt>
      <trkpt lat="31.77914000" lon="34.96898000">
        <ele>348.00000</ele>
        <time>2010-01-01T01:20:30Z</time>
      </trkpt>
      <trkpt lat="31.77923000" lon="34.96833000">
        <ele>344.00000</ele>
        <time>2010-01-01T01:20:53Z</time>
      </trkpt>
      <trkpt lat="31.77922000" lon="34.96794000">
        <ele>340.00000</ele>
        <time>2010-01-01T01:21:06Z</time>
      </trkpt>
      <trkpt lat="31.77923000" lon="34.96767000">
        <ele>338.00000</ele>
        <time>2010-01-01T01:21:15Z</time>
      </trkpt>
      <trkpt lat="31.77929000" lon="34.96745000">
        <ele>336.00000</ele>
        <time>2010-01-01T01:21:23Z</time>
      </trkpt>
      <trkpt lat="31.77934000" lon="34.96710000">
        <ele>333.00000</ele>
        <time>2010-01-01T01:21:35Z</time>
      </trkpt>
      <trkpt lat="31.77942000" lon="34.96678000">
        <ele>332.00000</ele>
        <time>2010-01-01T01:21:47Z</time>
      </trkpt>
      <trkpt lat="31.77948000" lon="34.96657000">
        <ele>330.00000</ele>
        <time>2010-01-01T01:21:54Z</time>
      </trkpt>
      <trkpt lat="31.77964000" lon="34.96627000">
        <ele>328.00000</ele>
        <time>2010-01-01T01:22:06Z</time>
      </trkpt>
      <trkpt lat="31.77997000" lon="34.96572000">
        <ele>324.00000</ele>
        <time>2010-01-01T01:22:29Z</time>
      </trkpt>
      <trkpt lat="31.78005000" lon="34.96553000">
        <ele>323.00000</ele>
        <time>2010-01-01T01:22:36Z</time>
      </trkpt>
      <trkpt lat="31.78013000" lon="34.96539000">
        <ele>322.00000</ele>
        <time>2010-01-01T01:22:42Z</time>
      </trkpt>
      <trkpt lat="31.78047000" lon="34.96500000">
        <ele>315.00000</ele>
        <time>2010-01-01T01:23:01Z</time>
      </trkpt>
      <trkpt lat="31.78058000" lon="34.96490000">
        <ele>313.00000</ele>
        <time>2010-01-01T01:23:07Z</time>
      </trkpt>
      <trkpt lat="31.78088000" lon="34.96470000">
        <ele>307.00000</ele>
        <time>2010-01-01T01:23:20Z</time>
      </trkpt>
      <trkpt lat="31.78093000" lon="34.96462000">
        <ele>307.00000</ele>
        <time>2010-01-01T01:23:24Z</time>
      </trkpt>
      <trkpt lat="31.78101000" lon="34.96442000">
        <ele>306.00000</ele>
        <time>2010-01-01T01:23:31Z</time>
      </trkpt>
      <trkpt lat="31.78110000" lon="34.96429000">
        <ele>306.00000</ele>
        <time>2010-01-01T01:23:37Z</time>
      </trkpt>
      <trkpt lat="31.78139000" lon="34.96394000">
        <ele>302.00000</ele>
        <time>2010-01-01T01:23:54Z</time>
      </trkpt>
      <trkpt lat="31.78161000" lon="34.96354000">
        <ele>299.00000</ele>
        <time>2010-01-01T01:24:10Z</time>
      </trkpt>
      <trkpt lat="31.78175000" lon="34.96316000">
        <ele>298.00000</ele>
        <time>2010-01-01T01:24:24Z</time>
      </trkpt>
      <trkpt lat="31.78194000" lon="34.96276000">
        <ele>299.00000</ele>
        <time>2010-01-01T01:24:40Z</time>
      </trkpt>
      <trkpt lat="31.78210000" lon="34.96239000">
        <ele>300.00000</ele>
        <time>2010-01-01T01:24:54Z</time>
      </trkpt>
      <trkpt lat="31.78228000" lon="34.96197000">
        <ele>301.00000</ele>
        <time>2010-01-01T01:25:10Z</time>
      </trkpt>
      <trkpt lat="31.78254000" lon="34.96125000">
        <ele>301.00000</ele>
        <time>2010-01-01T01:25:36Z</time>
      </trkpt>
      <trkpt lat="31.78268000" lon="34.96051000">
        <ele>302.00000</ele>
        <time>2010-01-01T01:26:02Z</time>
      </trkpt>
      <trkpt lat="31.78274000" lon="34.96039000">
        <ele>300.00000</ele>
        <time>2010-01-01T01:26:07Z</time>
      </trkpt>
      <trkpt lat="31.78276000" lon="34.96026000">
        <ele>300.00000</ele>
        <time>2010-01-01T01:26:11Z</time>
      </trkpt>
      <trkpt lat="31.78276000" lon="34.96015000">
        <ele>300.00000</ele>
        <time>2010-01-01T01:26:15Z</time>
      </trkpt>
      <trkpt lat="31.78265000" lon="34.95996000">
        <ele>303.00000</ele>
        <time>2010-01-01T01:26:23Z</time>
      </trkpt>
      <trkpt lat="31.78261000" lon="34.95985000">
        <ele>304.00000</ele>
        <time>2010-01-01T01:26:27Z</time>
      </trkpt>
      <trkpt lat="31.78268000" lon="34.95971000">
        <ele>301.00000</ele>
        <time>2010-01-01T01:26:33Z</time>
      </trkpt>
      <trkpt lat="31.78296000" lon="34.95944000">
        <ele>296.00000</ele>
        <time>2010-01-01T01:26:47Z</time>
      </trkpt>
      <trkpt lat="31.78345000" lon="34.95921000">
        <ele>295.00000</ele>
        <time>2010-01-01T01:27:08Z</time>
      </trkpt>
      <trkpt lat="31.78400000" lon="34.95889000">
        <ele>286.00000</ele>
        <time>2010-01-01T01:27:33Z</time>
      </trkpt>
      <trkpt lat="31.78500000" lon="34.95792000">
        <ele>287.00000</ele>
        <time>2010-01-01T01:28:25Z</time>
      </trkpt>
      <trkpt lat="31.78539000" lon="34.95757000">
        <ele>291.00000</ele>
        <time>2010-01-01T01:28:44Z</time>
      </trkpt>
      <trkpt lat="31.78582000" lon="34.95716000">
        <ele>294.00000</ele>
        <time>2010-01-01T01:29:06Z</time>
      </trkpt>
      <trkpt lat="31.78618000" lon="34.95688000">
        <ele>293.00000</ele>
        <time>2010-01-01T01:29:24Z</time>
      </trkpt>
      <trkpt lat="31.78651000" lon="34.95652000">
        <ele>293.00000</ele>
        <time>2010-01-01T01:29:42Z</time>
      </trkpt>
      <trkpt lat="31.78665000" lon="34.95641000">
        <ele>293.00000</ele>
        <time>2010-01-01T01:29:48Z</time>
      </trkpt>
      <trkpt lat="31.78677000" lon="34.95634000">
        <ele>293.00000</ele>
        <time>2010-01-01T01:29:54Z</time>
      </trkpt>
      <trkpt lat="31.78722000" lon="34.95613000">
        <ele>290.00000</ele>
        <time>2010-01-01T01:30:13Z</time>
      </trkpt>
      <trkpt lat="31.78769000" lon="34.95584000">
        <ele>289.00000</ele>
        <time>2010-01-01T01:30:34Z</time>
      </trkpt>
      <trkpt lat="31.78790000" lon="34.95564000">
        <ele>287.00000</ele>
        <time>2010-01-01T01:30:45Z</time>
      </trkpt>
      <trkpt lat="31.78809000" lon="34.95549000">
        <ele>285.00000</ele>
        <time>2010-01-01T01:30:54Z</time>
      </trkpt>
      <trkpt lat="31.78816000" lon="34.95540000">
        <ele>284.00000</ele>
        <time>2010-01-01T01:30:59Z</time>
      </trkpt>
      <trkpt lat="31.78821000" lon="34.95530000">
        <ele>284.00000</ele>
        <time>2010-01-01T01:31:02Z</time>
      </trkpt>
      <trkpt lat="31.78824000" lon="34.95540000">
        <ele>283.00000</ele>
        <time>2010-01-01T01:31:06Z</time>
      </trkpt>
      <trkpt lat="31.78822000" lon="34.95547000">
        <ele>283.00000</ele>
        <time>2010-01-01T01:31:09Z</time>
      </trkpt>
      <trkpt lat="31.78803000" lon="34.95570000">
        <ele>285.00000</ele>
        <time>2010-01-01T01:31:19Z</time>
      </trkpt>
      <trkpt lat="31.78788000" lon="34.95592000">
        <ele>285.00000</ele>
        <time>2010-01-01T01:31:29Z</time>
      </trkpt>
      <trkpt lat="31.78777000" lon="34.95626000">
        <ele>281.00000</ele>
        <time>2010-01-01T01:31:41Z</time>
      </trkpt>
      <trkpt lat="31.78770000" lon="34.95645000">
        <ele>279.00000</ele>
        <time>2010-01-01T01:31:49Z</time>
      </trkpt>
      <trkpt lat="31.78759000" lon="34.95666000">
        <ele>279.00000</ele>
        <time>2010-01-01T01:31:57Z</time>
      </trkpt>
      <trkpt lat="31.78751000" lon="34.95676000">
        <ele>278.00000</ele>
        <time>2010-01-01T01:32:02Z</time>
      </trkpt>
      <trkpt lat="31.78736000" lon="34.95686000">
        <ele>278.00000</ele>
        <time>2010-01-01T01:32:08Z</time>
      </trkpt>
      <trkpt lat="31.78688000" lon="34.95700000">
        <ele>280.00000</ele>
        <time>2010-01-01T01:32:28Z</time>
      </trkpt>
      <trkpt lat="31.78673000" lon="34.95709000">
        <ele>282.00000</ele>
        <time>2010-01-01T01:32:35Z</time>
      </trkpt>
      <trkpt lat="31.78669000" lon="34.95714000">
        <ele>282.00000</ele>
        <time>2010-01-01T01:32:37Z</time>
      </trkpt>
      <trkpt lat="31.78667000" lon="34.95723000">
        <ele>281.00000</ele>
        <time>2010-01-01T01:32:41Z</time>
      </trkpt>
      <trkpt lat="31.78668000" lon="34.95731000">
        <ele>280.00000</ele>
        <time>2010-01-01T01:32:43Z</time>
      </trkpt>
      <trkpt lat="31.78673000" lon="34.95745000">
        <ele>278.00000</ele>
        <time>2010-01-01T01:32:48Z</time>
      </trkpt>
      <trkpt lat="31.78674000" lon="34.95759000">
        <ele>277.00000</ele>
        <time>2010-01-01T01:32:53Z</time>
      </trkpt>
      <trkpt lat="31.78670000" lon="34.95768000">
        <ele>276.00000</ele>
        <time>2010-01-01T01:32:57Z</time>
      </trkpt>
      <trkpt lat="31.78663000" lon="34.95774000">
        <ele>275.00000</ele>
        <time>2010-01-01T01:33:00Z</time>
      </trkpt>
      <trkpt lat="31.78647000" lon="34.95783000">
        <ele>275.00000</ele>
        <time>2010-01-01T01:33:07Z</time>
      </trkpt>
      <trkpt lat="31.78623000" lon="34.95788000">
        <ele>278.00000</ele>
        <time>2010-01-01T01:33:17Z</time>
      </trkpt>
      <trkpt lat="31.78601000" lon="34.95796000">
        <ele>279.00000</ele>
        <time>2010-01-01T01:33:26Z</time>
      </trkpt>
      <trkpt lat="31.78575000" lon="34.95816000">
        <ele>280.00000</ele>
        <time>2010-01-01T01:33:39Z</time>
      </trkpt>
      <trkpt lat="31.78569000" lon="34.95827000">
        <ele>279.00000</ele>
        <time>2010-01-01T01:33:43Z</time>
      </trkpt>
      <trkpt lat="31.78570000" lon="34.95836000">
        <ele>277.00000</ele>
        <time>2010-01-01T01:33:46Z</time>
      </trkpt>
      <trkpt lat="31.78575000" lon="34.95842000">
        <ele>275.00000</ele>
        <time>2010-01-01T01:33:49Z</time>
      </trkpt>
      <trkpt lat="31.78584000" lon="34.95848000">
        <ele>273.00000</ele>
        <time>2010-01-01T01:33:53Z</time>
      </trkpt>
      <trkpt lat="31.78590000" lon="34.95850000">
        <ele>271.00000</ele>
        <time>2010-01-01T01:33:56Z</time>
      </trkpt>
      <trkpt lat="31.78609000" lon="34.95850000">
        <ele>268.00000</ele>
        <time>2010-01-01T01:34:03Z</time>
      </trkpt>
      <trkpt lat="31.78660000" lon="34.95837000">
        <ele>266.00000</ele>
        <time>2010-01-01T01:34:24Z</time>
      </trkpt>
      <trkpt lat="31.78694000" lon="34.95833000">
        <ele>263.00000</ele>
        <time>2010-01-01T01:34:38Z</time>
      </trkpt>
      <trkpt lat="31.78704000" lon="34.95835000">
        <ele>261.00000</ele>
        <time>2010-01-01T01:34:42Z</time>
      </trkpt>
      <trkpt lat="31.78713000" lon="34.95844000">
        <ele>259.00000</ele>
        <time>2010-01-01T01:34:47Z</time>
      </trkpt>
      <trkpt lat="31.78672000" lon="34.95875000">
        <ele>258.00000</ele>
        <time>2010-01-01T01:35:06Z</time>
      </trkpt>
      <trkpt lat="31.78618000" lon="34.95922000">
        <ele>255.00000</ele>
        <time>2010-01-01T01:35:33Z</time>
      </trkpt>
      <trkpt lat="31.78586000" lon="34.95943000">
        <ele>254.00000</ele>
        <time>2010-01-01T01:35:48Z</time>
      </trkpt>
      <trkpt lat="31.78578000" lon="34.95951000">
        <ele>254.00000</ele>
        <time>2010-01-01T01:35:52Z</time>
      </trkpt>
      <trkpt lat="31.78572000" lon="34.95959000">
        <ele>254.00000</ele>
        <time>2010-01-01T01:35:56Z</time>
      </trkpt>
      <trkpt lat="31.78569000" lon="34.95970000">
        <ele>252.00000</ele>
        <time>2010-01-01T01:35:59Z</time>
      </trkpt>
      <trkpt lat="31.78570000" lon="34.95986000">
        <ele>251.00000</ele>
        <time>2010-01-01T01:36:05Z</time>
      </trkpt>
      <trkpt lat="31.78584000" lon="34.96031000">
        <ele>247.00000</ele>
        <time>2010-01-01T01:36:21Z</time>
      </trkpt>
      <trkpt lat="31.78591000" lon="34.96065000">
        <ele>248.00000</ele>
        <time>2010-01-01T01:36:33Z</time>
      </trkpt>
      <trkpt lat="31.78591000" lon="34.96073000">
        <ele>248.00000</ele>
        <time>2010-01-01T01:36:36Z</time>
      </trkpt>
      <trkpt lat="31.78578000" lon="34.96137000">
        <ele>253.00000</ele>
        <time>2010-01-01T01:36:58Z</time>
      </trkpt>
      <trkpt lat="31.78585000" lon="34.96160000">
        <ele>253.00000</ele>
        <time>2010-01-01T01:37:07Z</time>
      </trkpt>
      <trkpt lat="31.78592000" lon="34.96169000">
        <ele>254.00000</ele>
        <time>2010-01-01T01:37:11Z</time>
      </trkpt>
      <trkpt lat="31.78606000" lon="34.96180000">
        <ele>256.00000</ele>
        <time>2010-01-01T01:37:17Z</time>
      </trkpt>
      <trkpt lat="31.78619000" lon="34.96185000">
        <ele>257.00000</ele>
        <time>2010-01-01T01:37:23Z</time>
      </trkpt>
      <trkpt lat="31.78637000" lon="34.96189000">
        <ele>259.00000</ele>
        <time>2010-01-01T01:37:30Z</time>
      </trkpt>
      <trkpt lat="31.78673000" lon="34.96204000">
        <ele>264.00000</ele>
        <time>2010-01-01T01:37:46Z</time>
      </trkpt>
      <trkpt lat="31.78723000" lon="34.96232000">
        <ele>269.00000</ele>
        <time>2010-01-01T01:38:08Z</time>
      </trkpt>
      <trkpt lat="31.78722000" lon="34.96232000">
        <ele>269.00000</ele>
        <time>2010-01-01T01:38:08Z</time>
      </trkpt>
      <trkpt lat="31.78768000" lon="34.96255000">
        <ele>271.00000</ele>
        <time>2010-01-01T01:38:28Z</time>
      </trkpt>
      <trkpt lat="31.78790000" lon="34.96263000">
        <ele>271.00000</ele>
        <time>2010-01-01T01:38:37Z</time>
      </trkpt>
      <trkpt lat="31.78801000" lon="34.96271000">
        <ele>271.00000</ele>
        <time>2010-01-01T01:38:43Z</time>
      </trkpt>
      <trkpt lat="31.78806000" lon="34.96279000">
        <ele>272.00000</ele>
        <time>2010-01-01T01:38:46Z</time>
      </trkpt>
      <trkpt lat="31.78807000" lon="34.96290000">
        <ele>272.00000</ele>
        <time>2010-01-01T01:38:50Z</time>
      </trkpt>
      <trkpt lat="31.78804000" lon="34.96308000">
        <ele>273.00000</ele>
        <time>2010-01-01T01:38:56Z</time>
      </trkpt>
      <trkpt lat="31.78799000" lon="34.96321000">
        <ele>273.00000</ele>
        <time>2010-01-01T01:39:01Z</time>
      </trkpt>
      <trkpt lat="31.78748000" lon="34.96410000">
        <ele>276.00000</ele>
        <time>2010-01-01T01:39:37Z</time>
      </trkpt>
      <trkpt lat="31.78726000" lon="34.96439000">
        <ele>276.00000</ele>
        <time>2010-01-01T01:39:51Z</time>
      </trkpt>
      <trkpt lat="31.78711000" lon="34.96459000">
        <ele>275.00000</ele>
        <time>2010-01-01T01:40:00Z</time>
      </trkpt>
      <trkpt lat="31.78701000" lon="34.96466000">
        <ele>275.00000</ele>
        <time>2010-01-01T01:40:04Z</time>
      </trkpt>
      <trkpt lat="31.78683000" lon="34.96471000">
        <ele>277.00000</ele>
        <time>2010-01-01T01:40:12Z</time>
      </trkpt>
      <trkpt lat="31.78675000" lon="34.96475000">
        <ele>278.00000</ele>
        <time>2010-01-01T01:40:15Z</time>
      </trkpt>
      <trkpt lat="31.78665000" lon="34.96485000">
        <ele>279.00000</ele>
        <time>2010-01-01T01:40:20Z</time>
      </trkpt>
      <trkpt lat="31.78661000" lon="34.96494000">
        <ele>279.00000</ele>
        <time>2010-01-01T01:40:24Z</time>
      </trkpt>
      <trkpt lat="31.78661000" lon="34.96506000">
        <ele>278.00000</ele>
        <time>2010-01-01T01:40:28Z</time>
      </trkpt>
      <trkpt lat="31.78667000" lon="34.96516000">
        <ele>278.00000</ele>
        <time>2010-01-01T01:40:32Z</time>
      </trkpt>
      <trkpt lat="31.78714000" lon="34.96501000">
        <ele>270.00000</ele>
        <time>2010-01-01T01:40:52Z</time>
      </trkpt>
      <trkpt lat="31.78748000" lon="34.96496000">
        <ele>266.00000</ele>
        <time>2010-01-01T01:41:05Z</time>
      </trkpt>
      <trkpt lat="31.78760000" lon="34.96493000">
        <ele>265.00000</ele>
        <time>2010-01-01T01:41:10Z</time>
      </trkpt>
      <trkpt lat="31.78807000" lon="34.96472000">
        <ele>260.00000</ele>
        <time>2010-01-01T01:41:30Z</time>
      </trkpt>
      <trkpt lat="31.78873000" lon="34.96479000">
        <ele>255.00000</ele>
        <time>2010-01-01T01:41:57Z</time>
      </trkpt>
      <trkpt lat="31.78935000" lon="34.96472000">
        <ele>250.00000</ele>
        <time>2010-01-01T01:42:22Z</time>
      </trkpt>
      <trkpt lat="31.78953000" lon="34.96467000">
        <ele>248.00000</ele>
        <time>2010-01-01T01:42:29Z</time>
      </trkpt>
      <trkpt lat="31.78963000" lon="34.96464000">
        <ele>246.00000</ele>
        <time>2010-01-01T01:42:33Z</time>
      </trkpt>
      <trkpt lat="31.78998000" lon="34.96448000">
        <ele>240.00000</ele>
        <time>2010-01-01T01:42:48Z</time>
      </trkpt>
      <trkpt lat="31.79018000" lon="34.96436000">
        <ele>237.00000</ele>
        <time>2010-01-01T01:42:57Z</time>
      </trkpt>
      <trkpt lat="31.79078000" lon="34.96409000">
        <ele>234.00000</ele>
        <time>2010-01-01T01:43:23Z</time>
      </trkpt>
      <trkpt lat="31.79121000" lon="34.96397000">
        <ele>230.00000</ele>
        <time>2010-01-01T01:43:41Z</time>
      </trkpt>
      <trkpt lat="31.79144000" lon="34.96394000">
        <ele>227.00000</ele>
        <time>2010-01-01T01:43:50Z</time>
      </trkpt>
      <trkpt lat="31.79166000" lon="34.96384000">
        <ele>225.00000</ele>
        <time>2010-01-01T01:43:59Z</time>
      </trkpt>
      <trkpt lat="31.79180000" lon="34.96374000">
        <ele>224.00000</ele>
        <time>2010-01-01T01:44:06Z</time>
      </trkpt>
      <trkpt lat="31.79201000" lon="34.96353000">
        <ele>223.00000</ele>
        <time>2010-01-01T01:44:17Z</time>
      </trkpt>
      <trkpt lat="31.79224000" lon="34.96325000">
        <ele>224.00000</ele>
        <time>2010-01-01T01:44:30Z</time>
      </trkpt>
      <trkpt lat="31.79248000" lon="34.96301000">
        <ele>222.00000</ele>
        <time>2010-01-01T01:44:43Z</time>
      </trkpt>
      <trkpt lat="31.79287000" lon="34.96269000">
        <ele>215.00000</ele>
        <time>2010-01-01T01:45:02Z</time>
      </trkpt>
      <trkpt lat="31.79302000" lon="34.96253000">
        <ele>211.00000</ele>
        <time>2010-01-01T01:45:10Z</time>
      </trkpt>
      <trkpt lat="31.79336000" lon="34.96214000">
        <ele>210.00000</ele>
        <time>2010-01-01T01:45:29Z</time>
      </trkpt>
      <trkpt lat="31.79363000" lon="34.96189000">
        <ele>210.00000</ele>
        <time>2010-01-01T01:45:43Z</time>
      </trkpt>
      <trkpt lat="31.79383000" lon="34.96172000">
        <ele>210.00000</ele>
        <time>2010-01-01T01:45:53Z</time>
      </trkpt>
      <trkpt lat="31.79404000" lon="34.96148000">
        <ele>209.00000</ele>
        <time>2010-01-01T01:46:04Z</time>
      </trkpt>
      <trkpt lat="31.79423000" lon="34.96121000">
        <ele>207.00000</ele>
        <time>2010-01-01T01:46:16Z</time>
      </trkpt>
      <trkpt lat="31.79437000" lon="34.96117000">
        <ele>205.00000</ele>
        <time>2010-01-01T01:46:22Z</time>
      </trkpt>
      <trkpt lat="31.79449000" lon="34.96109000">
        <ele>203.00000</ele>
        <time>2010-01-01T01:46:28Z</time>
      </trkpt>
      <trkpt lat="31.79456000" lon="34.96098000">
        <ele>203.00000</ele>
        <time>2010-01-01T01:46:32Z</time>
      </trkpt>
      <trkpt lat="31.79469000" lon="34.96072000">
        <ele>206.00000</ele>
        <time>2010-01-01T01:46:43Z</time>
      </trkpt>
      <trkpt lat="31.79476000" lon="34.96065000">
        <ele>207.00000</ele>
        <time>2010-01-01T01:46:46Z</time>
      </trkpt>
      <trkpt lat="31.79483000" lon="34.96063000">
        <ele>206.00000</ele>
        <time>2010-01-01T01:46:49Z</time>
      </trkpt>
      <trkpt lat="31.79498000" lon="34.96068000">
        <ele>204.00000</ele>
        <time>2010-01-01T01:46:55Z</time>
      </trkpt>
      <trkpt lat="31.79511000" lon="34.96075000">
        <ele>202.00000</ele>
        <time>2010-01-01T01:47:01Z</time>
      </trkpt>
      <trkpt lat="31.79546000" lon="34.96100000">
        <ele>199.00000</ele>
        <time>2010-01-01T01:47:17Z</time>
      </trkpt>
      <trkpt lat="31.79558000" lon="34.96106000">
        <ele>199.00000</ele>
        <time>2010-01-01T01:47:23Z</time>
      </trkpt>
      <trkpt lat="31.79568000" lon="34.96106000">
        <ele>199.00000</ele>
        <time>2010-01-01T01:47:27Z</time>
      </trkpt>
      <trkpt lat="31.79602000" lon="34.96091000">
        <ele>199.00000</ele>
        <time>2010-01-01T01:47:41Z</time>
      </trkpt>
      <trkpt lat="31.79610000" lon="34.96104000">
        <ele>200.00000</ele>
        <time>2010-01-01T01:47:47Z</time>
      </trkpt>
      <trkpt lat="31.79610000" lon="34.96113000">
        <ele>201.00000</ele>
        <time>2010-01-01T01:47:50Z</time>
      </trkpt>
      <trkpt lat="31.79608000" lon="34.96121000">
        <ele>201.00000</ele>
        <time>2010-01-01T01:47:53Z</time>
      </trkpt>
      <trkpt lat="31.79604000" lon="34.96128000">
        <ele>202.00000</ele>
        <time>2010-01-01T01:47:55Z</time>
      </trkpt>
      <trkpt lat="31.79587000" lon="34.96143000">
        <ele>202.00000</ele>
        <time>2010-01-01T01:48:04Z</time>
      </trkpt>
      <trkpt lat="31.79574000" lon="34.96158000">
        <ele>202.00000</ele>
        <time>2010-01-01T01:48:11Z</time>
      </trkpt>
      <trkpt lat="31.79557000" lon="34.96185000">
        <ele>202.00000</ele>
        <time>2010-01-01T01:48:23Z</time>
      </trkpt>
      <trkpt lat="31.79555000" lon="34.96193000">
        <ele>202.00000</ele>
        <time>2010-01-01T01:48:26Z</time>
      </trkpt>
      <trkpt lat="31.79557000" lon="34.96210000">
        <ele>204.00000</ele>
        <time>2010-01-01T01:48:31Z</time>
      </trkpt>
      <trkpt lat="31.79570000" lon="34.96254000">
        <ele>209.00000</ele>
        <time>2010-01-01T01:48:47Z</time>
      </trkpt>
      <trkpt lat="31.79575000" lon="34.96287000">
        <ele>212.00000</ele>
        <time>2010-01-01T01:48:59Z</time>
      </trkpt>
      <trkpt lat="31.79577000" lon="34.96308000">
        <ele>214.00000</ele>
        <time>2010-01-01T01:49:06Z</time>
      </trkpt>
      <trkpt lat="31.79580000" lon="34.96398000">
        <ele>217.00000</ele>
        <time>2010-01-01T01:49:36Z</time>
      </trkpt>
      <trkpt lat="31.79580000" lon="34.96397000">
        <ele>217.00000</ele>
        <time>2010-01-01T01:49:37Z</time>
      </trkpt>
      <trkpt lat="31.79580000" lon="34.96407000">
        <ele>217.00000</ele>
        <time>2010-01-01T01:49:40Z</time>
      </trkpt>
      <trkpt lat="31.79568000" lon="34.96452000">
        <ele>218.00000</ele>
        <time>2010-01-01T01:49:56Z</time>
      </trkpt>
      <trkpt lat="31.79563000" lon="34.96462000">
        <ele>218.00000</ele>
        <time>2010-01-01T01:50:00Z</time>
      </trkpt>
      <trkpt lat="31.79552000" lon="34.96471000">
        <ele>219.00000</ele>
        <time>2010-01-01T01:50:06Z</time>
      </trkpt>
      <trkpt lat="31.79526000" lon="34.96485000">
        <ele>221.00000</ele>
        <time>2010-01-01T01:50:17Z</time>
      </trkpt>
      <trkpt lat="31.79508000" lon="34.96525000">
        <ele>223.00000</ele>
        <time>2010-01-01T01:50:32Z</time>
      </trkpt>
      <trkpt lat="31.79494000" lon="34.96544000">
        <ele>225.00000</ele>
        <time>2010-01-01T01:50:41Z</time>
      </trkpt>
      <trkpt lat="31.79448000" lon="34.96645000">
        <ele>238.00000</ele>
        <time>2010-01-01T01:51:20Z</time>
      </trkpt>
      <trkpt lat="31.79430000" lon="34.96676000">
        <ele>241.00000</ele>
        <time>2010-01-01T01:51:33Z</time>
      </trkpt>
      <trkpt lat="31.79426000" lon="34.96695000">
        <ele>243.00000</ele>
        <time>2010-01-01T01:51:39Z</time>
      </trkpt>
      <trkpt lat="31.79425000" lon="34.96708000">
        <ele>242.00000</ele>
        <time>2010-01-01T01:51:44Z</time>
      </trkpt>
      <trkpt lat="31.79427000" lon="34.96750000">
        <ele>239.00000</ele>
        <time>2010-01-01T01:51:58Z</time>
      </trkpt>
      <trkpt lat="31.79424000" lon="34.96785000">
        <ele>241.00000</ele>
        <time>2010-01-01T01:52:10Z</time>
      </trkpt>
      <trkpt lat="31.79424000" lon="34.96831000">
        <ele>241.00000</ele>
        <time>2010-01-01T01:52:26Z</time>
      </trkpt>
      <trkpt lat="31.79414000" lon="34.96921000">
        <ele>237.00000</ele>
        <time>2010-01-01T01:52:57Z</time>
      </trkpt>
      <trkpt lat="31.79416000" lon="34.96935000">
        <ele>237.00000</ele>
        <time>2010-01-01T01:53:01Z</time>
      </trkpt>
      <trkpt lat="31.79422000" lon="34.96947000">
        <ele>236.00000</ele>
        <time>2010-01-01T01:53:06Z</time>
      </trkpt>
      <trkpt lat="31.79430000" lon="34.96959000">
        <ele>236.00000</ele>
        <time>2010-01-01T01:53:11Z</time>
      </trkpt>
      <trkpt lat="31.79440000" lon="34.96966000">
        <ele>235.00000</ele>
        <time>2010-01-01T01:53:16Z</time>
      </trkpt>
      <trkpt lat="31.79454000" lon="34.96970000">
        <ele>232.00000</ele>
        <time>2010-01-01T01:53:22Z</time>
      </trkpt>
      <trkpt lat="31.79479000" lon="34.96972000">
        <ele>228.00000</ele>
        <time>2010-01-01T01:53:32Z</time>
      </trkpt>
      <trkpt lat="31.79505000" lon="34.96985000">
        <ele>225.00000</ele>
        <time>2010-01-01T01:53:43Z</time>
      </trkpt>
      <trkpt lat="31.79518000" lon="34.96997000">
        <ele>223.00000</ele>
        <time>2010-01-01T01:53:50Z</time>
      </trkpt>
      <trkpt lat="31.79531000" lon="34.97013000">
        <ele>222.00000</ele>
        <time>2010-01-01T01:53:57Z</time>
      </trkpt>
      <trkpt lat="31.79543000" lon="34.97038000">
        <ele>222.00000</ele>
        <time>2010-01-01T01:54:07Z</time>
      </trkpt>
      <trkpt lat="31.79579000" lon="34.97082000">
        <ele>218.00000</ele>
        <time>2010-01-01T01:54:28Z</time>
      </trkpt>
      <trkpt lat="31.79596000" lon="34.97106000">
        <ele>217.00000</ele>
        <time>2010-01-01T01:54:38Z</time>
      </trkpt>
      <trkpt lat="31.79601000" lon="34.97122000">
        <ele>216.00000</ele>
        <time>2010-01-01T01:54:44Z</time>
      </trkpt>
      <trkpt lat="31.79604000" lon="34.97153000">
        <ele>216.00000</ele>
        <time>2010-01-01T01:54:55Z</time>
      </trkpt>
      <trkpt lat="31.79594000" lon="34.97185000">
        <ele>217.00000</ele>
        <time>2010-01-01T01:55:06Z</time>
      </trkpt>
      <trkpt lat="31.79584000" lon="34.97206000">
        <ele>217.00000</ele>
        <time>2010-01-01T01:55:15Z</time>
      </trkpt>
      <trkpt lat="31.79575000" lon="34.97219000">
        <ele>218.00000</ele>
        <time>2010-01-01T01:55:20Z</time>
      </trkpt>
      <trkpt lat="31.79570000" lon="34.97228000">
        <ele>218.00000</ele>
        <time>2010-01-01T01:55:24Z</time>
      </trkpt>
      <trkpt lat="31.79567000" lon="34.97237000">
        <ele>218.00000</ele>
        <time>2010-01-01T01:55:27Z</time>
      </trkpt>
      <trkpt lat="31.79559000" lon="34.97271000">
        <ele>216.00000</ele>
        <time>2010-01-01T01:55:39Z</time>
      </trkpt>
      <trkpt lat="31.79557000" lon="34.97315000">
        <ele>213.00000</ele>
        <time>2010-01-01T01:55:54Z</time>
      </trkpt>
      <trkpt lat="31.79551000" lon="34.97396000">
        <ele>212.00000</ele>
        <time>2010-01-01T01:56:22Z</time>
      </trkpt>
      <trkpt lat="31.79551000" lon="34.97469000">
        <ele>213.00000</ele>
        <time>2010-01-01T01:56:47Z</time>
      </trkpt>
      <trkpt lat="31.79536000" lon="34.97486000">
        <ele>216.00000</ele>
        <time>2010-01-01T01:56:55Z</time>
      </trkpt>
      <trkpt lat="31.79530000" lon="34.97519000">
        <ele>217.00000</ele>
        <time>2010-01-01T01:57:07Z</time>
      </trkpt>
      <trkpt lat="31.79534000" lon="34.97538000">
        <ele>217.00000</ele>
        <time>2010-01-01T01:57:13Z</time>
      </trkpt>
      <trkpt lat="31.79530000" lon="34.97543000">
        <ele>217.00000</ele>
        <time>2010-01-01T01:57:16Z</time>
      </trkpt>
      <trkpt lat="31.79498000" lon="34.97596000">
        <ele>221.00000</ele>
        <time>2010-01-01T01:57:38Z</time>
      </trkpt>
      <trkpt lat="31.79480000" lon="34.97624000">
        <ele>223.00000</ele>
        <time>2010-01-01T01:57:50Z</time>
      </trkpt>
      <trkpt lat="31.79519000" lon="34.97653000">
        <ele>217.00000</ele>
        <time>2010-01-01T01:58:08Z</time>
      </trkpt>
      <trkpt lat="31.79530000" lon="34.97666000">
        <ele>216.00000</ele>
        <time>2010-01-01T01:58:14Z</time>
      </trkpt>
      <trkpt lat="31.79532000" lon="34.97707000">
        <ele>219.00000</ele>
        <time>2010-01-01T01:58:28Z</time>
      </trkpt>
      <trkpt lat="31.79561000" lon="34.97724000">
        <ele>221.00000</ele>
        <time>2010-01-01T01:58:41Z</time>
      </trkpt>
      <trkpt lat="31.79579000" lon="34.97733000">
        <ele>223.00000</ele>
        <time>2010-01-01T01:58:49Z</time>
      </trkpt>
      <trkpt lat="31.79593000" lon="34.97735000">
        <ele>225.00000</ele>
        <time>2010-01-01T01:58:55Z</time>
      </trkpt>
      <trkpt lat="31.79608000" lon="34.97731000">
        <ele>226.00000</ele>
        <time>2010-01-01T01:59:01Z</time>
      </trkpt>
      <trkpt lat="31.79619000" lon="34.97725000">
        <ele>227.00000</ele>
        <time>2010-01-01T01:59:06Z</time>
      </trkpt>
      <trkpt lat="31.79632000" lon="34.97714000">
        <ele>229.00000</ele>
        <time>2010-01-01T01:59:12Z</time>
      </trkpt>
      <trkpt lat="31.79711000" lon="34.97635000">
        <ele>232.00000</ele>
        <time>2010-01-01T01:59:54Z</time>
      </trkpt>
      <trkpt lat="31.79739000" lon="34.97610000">
        <ele>232.00000</ele>
        <time>2010-01-01T02:00:08Z</time>
      </trkpt>
      <trkpt lat="31.79748000" lon="34.97601000">
        <ele>232.00000</ele>
        <time>2010-01-01T02:00:13Z</time>
      </trkpt>
      <trkpt lat="31.79782000" lon="34.97584000">
        <ele>234.00000</ele>
        <time>2010-01-01T02:00:27Z</time>
      </trkpt>
      <trkpt lat="31.79793000" lon="34.97581000">
        <ele>234.00000</ele>
        <time>2010-01-01T02:00:32Z</time>
      </trkpt>
      <trkpt lat="31.79818000" lon="34.97579000">
        <ele>234.00000</ele>
        <time>2010-01-01T02:00:42Z</time>
      </trkpt>
      <trkpt lat="31.79832000" lon="34.97581000">
        <ele>233.00000</ele>
        <time>2010-01-01T02:00:48Z</time>
      </trkpt>
      <trkpt lat="31.79843000" lon="34.97585000">
        <ele>233.00000</ele>
        <time>2010-01-01T02:00:52Z</time>
      </trkpt>
      <trkpt lat="31.79861000" lon="34.97595000">
        <ele>233.00000</ele>
        <time>2010-01-01T02:01:00Z</time>
      </trkpt>
      <trkpt lat="31.79883000" lon="34.97615000">
        <ele>234.00000</ele>
        <time>2010-01-01T02:01:11Z</time>
      </trkpt>
      <trkpt lat="31.79901000" lon="34.97638000">
        <ele>234.00000</ele>
        <time>2010-01-01T02:01:22Z</time>
      </trkpt>
      <trkpt lat="31.79923000" lon="34.97672000">
        <ele>234.00000</ele>
        <time>2010-01-01T02:01:36Z</time>
      </trkpt>
      <trkpt lat="31.79972000" lon="34.97730000">
        <ele>236.00000</ele>
        <time>2010-01-01T02:02:04Z</time>
      </trkpt>
      <trkpt lat="31.79986000" lon="34.97743000">
        <ele>235.00000</ele>
        <time>2010-01-01T02:02:11Z</time>
      </trkpt>
      <trkpt lat="31.79994000" lon="34.97748000">
        <ele>235.00000</ele>
        <time>2010-01-01T02:02:15Z</time>
      </trkpt>
      <trkpt lat="31.80027000" lon="34.97749000">
        <ele>233.00000</ele>
        <time>2010-01-01T02:02:28Z</time>
      </trkpt>
      <trkpt lat="31.80037000" lon="34.97747000">
        <ele>233.00000</ele>
        <time>2010-01-01T02:02:32Z</time>
      </trkpt>
      <trkpt lat="31.80042000" lon="34.97742000">
        <ele>233.00000</ele>
        <time>2010-01-01T02:02:35Z</time>
      </trkpt>
      <trkpt lat="31.80058000" lon="34.97818000">
        <ele>236.00000</ele>
        <time>2010-01-01T02:03:02Z</time>
      </trkpt>
      <trkpt lat="31.80054000" lon="34.97837000">
        <ele>237.00000</ele>
        <time>2010-01-01T02:03:08Z</time>
      </trkpt>
      <trkpt lat="31.80013000" lon="34.97896000">
        <ele>242.00000</ele>
        <time>2010-01-01T02:03:34Z</time>
      </trkpt>
      <trkpt lat="31.80001000" lon="34.97917000">
        <ele>243.00000</ele>
        <time>2010-01-01T02:03:43Z</time>
      </trkpt>
      <trkpt lat="31.79998000" lon="34.97934000">
        <ele>244.00000</ele>
        <time>2010-01-01T02:03:49Z</time>
      </trkpt>
      <trkpt lat="31.79993000" lon="34.97949000">
        <ele>245.00000</ele>
        <time>2010-01-01T02:03:54Z</time>
      </trkpt>
      <trkpt lat="31.79988000" lon="34.97978000">
        <ele>247.00000</ele>
        <time>2010-01-01T02:04:04Z</time>
      </trkpt>
      <trkpt lat="31.79998000" lon="34.98014000">
        <ele>247.00000</ele>
        <time>2010-01-01T02:04:17Z</time>
      </trkpt>
      <trkpt lat="31.80025000" lon="34.98070000">
        <ele>248.00000</ele>
        <time>2010-01-01T02:04:39Z</time>
      </trkpt>
      <trkpt lat="31.80025000" lon="34.98069000">
        <ele>248.00000</ele>
        <time>2010-01-01T02:04:39Z</time>
      </trkpt>
      <trkpt lat="31.80027000" lon="34.98082000">
        <ele>249.00000</ele>
        <time>2010-01-01T02:04:44Z</time>
      </trkpt>
      <trkpt lat="31.80036000" lon="34.98105000">
        <ele>250.00000</ele>
        <time>2010-01-01T02:04:52Z</time>
      </trkpt>
      <trkpt lat="31.80048000" lon="34.98127000">
        <ele>250.00000</ele>
        <time>2010-01-01T02:05:01Z</time>
      </trkpt>
      <trkpt lat="31.80063000" lon="34.98150000">
        <ele>251.00000</ele>
        <time>2010-01-01T02:05:11Z</time>
      </trkpt>
      <trkpt lat="31.80068000" lon="34.98161000">
        <ele>252.00000</ele>
        <time>2010-01-01T02:05:15Z</time>
      </trkpt>
      <trkpt lat="31.80070000" lon="34.98170000">
        <ele>252.00000</ele>
        <time>2010-01-01T02:05:19Z</time>
      </trkpt>
      <trkpt lat="31.80072000" lon="34.98199000">
        <ele>254.00000</ele>
        <time>2010-01-01T02:05:28Z</time>
      </trkpt>
      <trkpt lat="31.80070000" lon="34.98220000">
        <ele>256.00000</ele>
        <time>2010-01-01T02:05:36Z</time>
      </trkpt>
      <trkpt lat="31.80066000" lon="34.98296000">
        <ele>256.00000</ele>
        <time>2010-01-01T02:06:02Z</time>
      </trkpt>
      <trkpt lat="31.80067000" lon="34.98352000">
        <ele>258.00000</ele>
        <time>2010-01-01T02:06:21Z</time>
      </trkpt>
      <trkpt lat="31.80064000" lon="34.98372000">
        <ele>261.00000</ele>
        <time>2010-01-01T02:06:28Z</time>
      </trkpt>
      <trkpt lat="31.80053000" lon="34.98418000">
        <ele>264.00000</ele>
        <time>2010-01-01T02:06:44Z</time>
      </trkpt>
      <trkpt lat="31.80045000" lon="34.98446000">
        <ele>261.00000</ele>
        <time>2010-01-01T02:06:54Z</time>
      </trkpt>
      <trkpt lat="31.80014000" lon="34.98532000">
        <ele>270.00000</ele>
        <time>2010-01-01T02:07:26Z</time>
      </trkpt>
      <trkpt lat="31.80003000" lon="34.98554000">
        <ele>271.00000</ele>
        <time>2010-01-01T02:07:34Z</time>
      </trkpt>
      <trkpt lat="31.79930000" lon="34.98664000">
        <ele>282.00000</ele>
        <time>2010-01-01T02:08:22Z</time>
      </trkpt>
      <trkpt lat="31.79899000" lon="34.98734000">
        <ele>284.00000</ele>
        <time>2010-01-01T02:08:49Z</time>
      </trkpt>
      <trkpt lat="31.79872000" lon="34.98795000">
        <ele>286.00000</ele>
        <time>2010-01-01T02:09:12Z</time>
      </trkpt>
      <trkpt lat="31.79863000" lon="34.98809000">
        <ele>285.00000</ele>
        <time>2010-01-01T02:09:18Z</time>
      </trkpt>
      <trkpt lat="31.79844000" lon="34.98829000">
        <ele>286.00000</ele>
        <time>2010-01-01T02:09:28Z</time>
      </trkpt>
      <trkpt lat="31.79839000" lon="34.98840000">
        <ele>286.00000</ele>
        <time>2010-01-01T02:09:32Z</time>
      </trkpt>
      <trkpt lat="31.79835000" lon="34.98852000">
        <ele>286.00000</ele>
        <time>2010-01-01T02:09:37Z</time>
      </trkpt>
      <trkpt lat="31.79850000" lon="34.98892000">
        <ele>286.00000</ele>
        <time>2010-01-01T02:09:52Z</time>
      </trkpt>
      <trkpt lat="31.79857000" lon="34.98902000">
        <ele>286.00000</ele>
        <time>2010-01-01T02:09:56Z</time>
      </trkpt>
      <trkpt lat="31.79865000" lon="34.98910000">
        <ele>287.00000</ele>
        <time>2010-01-01T02:10:00Z</time>
      </trkpt>
      <trkpt lat="31.79872000" lon="34.98912000">
        <ele>288.00000</ele>
        <time>2010-01-01T02:10:03Z</time>
      </trkpt>
      <trkpt lat="31.79879000" lon="34.98912000">
        <ele>289.00000</ele>
        <time>2010-01-01T02:10:06Z</time>
      </trkpt>
      <trkpt lat="31.79886000" lon="34.98909000">
        <ele>289.00000</ele>
        <time>2010-01-01T02:10:09Z</time>
      </trkpt>
      <trkpt lat="31.79891000" lon="34.98903000">
        <ele>289.00000</ele>
        <time>2010-01-01T02:10:12Z</time>
      </trkpt>
      <trkpt lat="31.79904000" lon="34.98878000">
        <ele>290.00000</ele>
        <time>2010-01-01T02:10:22Z</time>
      </trkpt>
      <trkpt lat="31.79922000" lon="34.98846000">
        <ele>294.00000</ele>
        <time>2010-01-01T02:10:35Z</time>
      </trkpt>
      <trkpt lat="31.79945000" lon="34.98818000">
        <ele>295.00000</ele>
        <time>2010-01-01T02:10:48Z</time>
      </trkpt>
      <trkpt lat="31.79966000" lon="34.98803000">
        <ele>296.00000</ele>
        <time>2010-01-01T02:10:58Z</time>
      </trkpt>
      <trkpt lat="31.80010000" lon="34.98775000">
        <ele>299.00000</ele>
        <time>2010-01-01T02:11:18Z</time>
      </trkpt>
      <trkpt lat="31.80027000" lon="34.98767000">
        <ele>300.00000</ele>
        <time>2010-01-01T02:11:25Z</time>
      </trkpt>
      <trkpt lat="31.80052000" lon="34.98762000">
        <ele>303.00000</ele>
        <time>2010-01-01T02:11:35Z</time>
      </trkpt>
      <trkpt lat="31.80066000" lon="34.98762000">
        <ele>305.00000</ele>
        <time>2010-01-01T02:11:41Z</time>
      </trkpt>
      <trkpt lat="31.80087000" lon="34.98769000">
        <ele>307.00000</ele>
        <time>2010-01-01T02:11:50Z</time>
      </trkpt>
      <trkpt lat="31.80106000" lon="34.98781000">
        <ele>308.00000</ele>
        <time>2010-01-01T02:11:58Z</time>
      </trkpt>
      <trkpt lat="31.80121000" lon="34.98792000">
        <ele>310.00000</ele>
        <time>2010-01-01T02:12:06Z</time>
      </trkpt>
      <trkpt lat="31.80147000" lon="34.98816000">
        <ele>316.00000</ele>
        <time>2010-01-01T02:12:19Z</time>
      </trkpt>
      <trkpt lat="31.80165000" lon="34.98829000">
        <ele>322.00000</ele>
        <time>2010-01-01T02:12:27Z</time>
      </trkpt>
      <trkpt lat="31.80179000" lon="34.98832000">
        <ele>325.00000</ele>
        <time>2010-01-01T02:12:33Z</time>
      </trkpt>
      <trkpt lat="31.80186000" lon="34.98830000">
        <ele>325.00000</ele>
        <time>2010-01-01T02:12:36Z</time>
      </trkpt>
      <trkpt lat="31.80192000" lon="34.98826000">
        <ele>325.00000</ele>
        <time>2010-01-01T02:12:39Z</time>
      </trkpt>
      <trkpt lat="31.80200000" lon="34.98818000">
        <ele>325.00000</ele>
        <time>2010-01-01T02:12:43Z</time>
      </trkpt>
      <trkpt lat="31.80215000" lon="34.98789000">
        <ele>321.00000</ele>
        <time>2010-01-01T02:12:54Z</time>
      </trkpt>
      <trkpt lat="31.80228000" lon="34.98774000">
        <ele>321.00000</ele>
        <time>2010-01-01T02:13:02Z</time>
      </trkpt>
      <trkpt lat="31.80249000" lon="34.98767000">
        <ele>325.00000</ele>
        <time>2010-01-01T02:13:10Z</time>
      </trkpt>
      <trkpt lat="31.80274000" lon="34.98766000">
        <ele>328.00000</ele>
        <time>2010-01-01T02:13:20Z</time>
      </trkpt>
      <trkpt lat="31.80283000" lon="34.98764000">
        <ele>329.00000</ele>
        <time>2010-01-01T02:13:24Z</time>
      </trkpt>
      <trkpt lat="31.80299000" lon="34.98761000">
        <ele>329.00000</ele>
        <time>2010-01-01T02:13:30Z</time>
      </trkpt>
      <trkpt lat="31.80316000" lon="34.98754000">
        <ele>331.00000</ele>
        <time>2010-01-01T02:13:38Z</time>
      </trkpt>
      <trkpt lat="31.80336000" lon="34.98738000">
        <ele>333.00000</ele>
        <time>2010-01-01T02:13:47Z</time>
      </trkpt>
      <trkpt lat="31.80345000" lon="34.98724000">
        <ele>332.00000</ele>
        <time>2010-01-01T02:13:53Z</time>
      </trkpt>
      <trkpt lat="31.80354000" lon="34.98716000">
        <ele>333.00000</ele>
        <time>2010-01-01T02:13:58Z</time>
      </trkpt>
      <trkpt lat="31.80386000" lon="34.98676000">
        <ele>335.00000</ele>
        <time>2010-01-01T02:14:17Z</time>
      </trkpt>
      <trkpt lat="31.80394000" lon="34.98662000">
        <ele>336.00000</ele>
        <time>2010-01-01T02:14:22Z</time>
      </trkpt>
      <trkpt lat="31.80403000" lon="34.98639000">
        <ele>338.00000</ele>
        <time>2010-01-01T02:14:31Z</time>
      </trkpt>
      <trkpt lat="31.80410000" lon="34.98625000">
        <ele>338.00000</ele>
        <time>2010-01-01T02:14:36Z</time>
      </trkpt>
      <trkpt lat="31.80416000" lon="34.98619000">
        <ele>338.00000</ele>
        <time>2010-01-01T02:14:40Z</time>
      </trkpt>
      <trkpt lat="31.80426000" lon="34.98615000">
        <ele>338.00000</ele>
        <time>2010-01-01T02:14:44Z</time>
      </trkpt>
      <trkpt lat="31.80433000" lon="34.98614000">
        <ele>338.00000</ele>
        <time>2010-01-01T02:14:47Z</time>
      </trkpt>
      <trkpt lat="31.80440000" lon="34.98617000">
        <ele>339.00000</ele>
        <time>2010-01-01T02:14:50Z</time>
      </trkpt>
      <trkpt lat="31.80446000" lon="34.98621000">
        <ele>339.00000</ele>
        <time>2010-01-01T02:14:52Z</time>
      </trkpt>
      <trkpt lat="31.80451000" lon="34.98628000">
        <ele>340.00000</ele>
        <time>2010-01-01T02:14:55Z</time>
      </trkpt>
      <trkpt lat="31.80456000" lon="34.98648000">
        <ele>341.00000</ele>
        <time>2010-01-01T02:15:03Z</time>
      </trkpt>
      <trkpt lat="31.80457000" lon="34.98661000">
        <ele>342.00000</ele>
        <time>2010-01-01T02:15:07Z</time>
      </trkpt>
      <trkpt lat="31.80457000" lon="34.98708000">
        <ele>345.00000</ele>
        <time>2010-01-01T02:15:23Z</time>
      </trkpt>
      <trkpt lat="31.80465000" lon="34.98792000">
        <ele>350.00000</ele>
        <time>2010-01-01T02:15:52Z</time>
      </trkpt>
      <trkpt lat="31.80465000" lon="34.98809000">
        <ele>350.00000</ele>
        <time>2010-01-01T02:15:58Z</time>
      </trkpt>
      <trkpt lat="31.80463000" lon="34.98826000">
        <ele>349.00000</ele>
        <time>2010-01-01T02:16:03Z</time>
      </trkpt>
      <trkpt lat="31.80457000" lon="34.98841000">
        <ele>349.00000</ele>
        <time>2010-01-01T02:16:09Z</time>
      </trkpt>
      <trkpt lat="31.80434000" lon="34.98879000">
        <ele>350.00000</ele>
        <time>2010-01-01T02:16:25Z</time>
      </trkpt>
      <trkpt lat="31.80402000" lon="34.98946000">
        <ele>356.00000</ele>
        <time>2010-01-01T02:16:51Z</time>
      </trkpt>
      <trkpt lat="31.80379000" lon="34.99008000">
        <ele>351.00000</ele>
        <time>2010-01-01T02:17:14Z</time>
      </trkpt>
      <trkpt lat="31.80365000" lon="34.99054000">
        <ele>350.00000</ele>
        <time>2010-01-01T02:17:31Z</time>
      </trkpt>
      <trkpt lat="31.80358000" lon="34.99093000">
        <ele>352.00000</ele>
        <time>2010-01-01T02:17:44Z</time>
      </trkpt>
      <trkpt lat="31.80359000" lon="34.99119000">
        <ele>354.00000</ele>
        <time>2010-01-01T02:17:53Z</time>
      </trkpt>
      <trkpt lat="31.80365000" lon="34.99134000">
        <ele>354.00000</ele>
        <time>2010-01-01T02:17:59Z</time>
      </trkpt>
      <trkpt lat="31.80377000" lon="34.99147000">
        <ele>353.00000</ele>
        <time>2010-01-01T02:18:05Z</time>
      </trkpt>
      <trkpt lat="31.80390000" lon="34.99152000">
        <ele>352.00000</ele>
        <time>2010-01-01T02:18:11Z</time>
      </trkpt>
      <trkpt lat="31.80417000" lon="34.99155000">
        <ele>351.00000</ele>
        <time>2010-01-01T02:18:22Z</time>
      </trkpt>
      <trkpt lat="31.80436000" lon="34.99148000">
        <ele>351.00000</ele>
        <time>2010-01-01T02:18:30Z</time>
      </trkpt>
      <trkpt lat="31.80555000" lon="34.99067000">
        <ele>345.00000</ele>
        <time>2010-01-01T02:19:25Z</time>
      </trkpt>
      <trkpt lat="31.80608000" lon="34.99050000">
        <ele>345.00000</ele>
        <time>2010-01-01T02:19:47Z</time>
      </trkpt>
      <trkpt lat="31.80615000" lon="34.99049000">
        <ele>345.00000</ele>
        <time>2010-01-01T02:19:49Z</time>
      </trkpt>
      <trkpt lat="31.80633000" lon="34.99047000">
        <ele>345.00000</ele>
        <time>2010-01-01T02:19:57Z</time>
      </trkpt>
      <trkpt lat="31.80678000" lon="34.99045000">
        <ele>343.00000</ele>
        <time>2010-01-01T02:20:15Z</time>
      </trkpt>
      <trkpt lat="31.80693000" lon="34.99052000">
        <ele>343.00000</ele>
        <time>2010-01-01T02:20:21Z</time>
      </trkpt>
      <trkpt lat="31.80718000" lon="34.99072000">
        <ele>343.00000</ele>
        <time>2010-01-01T02:20:33Z</time>
      </trkpt>
      <trkpt lat="31.80733000" lon="34.99092000">
        <ele>343.00000</ele>
        <time>2010-01-01T02:20:42Z</time>
      </trkpt>
      <trkpt lat="31.80755000" lon="34.99129000">
        <ele>342.00000</ele>
        <time>2010-01-01T02:20:58Z</time>
      </trkpt>
      <trkpt lat="31.80769000" lon="34.99145000">
        <ele>341.00000</ele>
        <time>2010-01-01T02:21:05Z</time>
      </trkpt>
      <trkpt lat="31.80788000" lon="34.99152000">
        <ele>338.00000</ele>
        <time>2010-01-01T02:21:13Z</time>
      </trkpt>
      <trkpt lat="31.80788000" lon="34.99169000">
        <ele>339.00000</ele>
        <time>2010-01-01T02:21:19Z</time>
      </trkpt>
      <trkpt lat="31.80832000" lon="34.99244000">
        <ele>336.00000</ele>
        <time>2010-01-01T02:21:50Z</time>
      </trkpt>
      <trkpt lat="31.80864000" lon="34.99292000">
        <ele>330.00000</ele>
        <time>2010-01-01T02:22:11Z</time>
      </trkpt>
      <trkpt lat="31.80863000" lon="34.99292000">
        <ele>330.00000</ele>
        <time>2010-01-01T02:22:11Z</time>
      </trkpt>
      <trkpt lat="31.80870000" lon="34.99302000">
        <ele>329.00000</ele>
        <time>2010-01-01T02:22:16Z</time>
      </trkpt>
      <trkpt lat="31.80882000" lon="34.99313000">
        <ele>330.00000</ele>
        <time>2010-01-01T02:22:22Z</time>
      </trkpt>
      <trkpt lat="31.80899000" lon="34.99320000">
        <ele>329.00000</ele>
        <time>2010-01-01T02:22:29Z</time>
      </trkpt>
      <trkpt lat="31.80913000" lon="34.99320000">
        <ele>329.00000</ele>
        <time>2010-01-01T02:22:35Z</time>
      </trkpt>
      <trkpt lat="31.80930000" lon="34.99313000">
        <ele>329.00000</ele>
        <time>2010-01-01T02:22:42Z</time>
      </trkpt>
      <trkpt lat="31.80940000" lon="34.99308000">
        <ele>328.00000</ele>
        <time>2010-01-01T02:22:46Z</time>
      </trkpt>
      <trkpt lat="31.80954000" lon="34.99294000">
        <ele>328.00000</ele>
        <time>2010-01-01T02:22:54Z</time>
      </trkpt>
      <trkpt lat="31.80963000" lon="34.99281000">
        <ele>328.00000</ele>
        <time>2010-01-01T02:22:59Z</time>
      </trkpt>
      <trkpt lat="31.80975000" lon="34.99255000">
        <ele>331.00000</ele>
        <time>2010-01-01T02:23:09Z</time>
      </trkpt>
      <trkpt lat="31.80982000" lon="34.99244000">
        <ele>331.00000</ele>
        <time>2010-01-01T02:23:14Z</time>
      </trkpt>
      <trkpt lat="31.80997000" lon="34.99215000">
        <ele>330.00000</ele>
        <time>2010-01-01T02:23:26Z</time>
      </trkpt>
      <trkpt lat="31.81009000" lon="34.99194000">
        <ele>330.00000</ele>
        <time>2010-01-01T02:23:34Z</time>
      </trkpt>
      <trkpt lat="31.81020000" lon="34.99183000">
        <ele>331.00000</ele>
        <time>2010-01-01T02:23:40Z</time>
      </trkpt>
      <trkpt lat="31.81046000" lon="34.99153000">
        <ele>333.00000</ele>
        <time>2010-01-01T02:23:55Z</time>
      </trkpt>
      <trkpt lat="31.81056000" lon="34.99147000">
        <ele>332.00000</ele>
        <time>2010-01-01T02:23:59Z</time>
      </trkpt>
      <trkpt lat="31.81067000" lon="34.99136000">
        <ele>333.00000</ele>
        <time>2010-01-01T02:24:05Z</time>
      </trkpt>
      <trkpt lat="31.81082000" lon="34.99126000">
        <ele>332.00000</ele>
        <time>2010-01-01T02:24:12Z</time>
      </trkpt>
      <trkpt lat="31.81107000" lon="34.99114000">
        <ele>332.00000</ele>
        <time>2010-01-01T02:24:23Z</time>
      </trkpt>
      <trkpt lat="31.81116000" lon="34.99109000">
        <ele>332.00000</ele>
        <time>2010-01-01T02:24:27Z</time>
      </trkpt>
      <trkpt lat="31.81132000" lon="34.99091000">
        <ele>330.00000</ele>
        <time>2010-01-01T02:24:35Z</time>
      </trkpt>
      <trkpt lat="31.81139000" lon="34.99078000">
        <ele>329.00000</ele>
        <time>2010-01-01T02:24:41Z</time>
      </trkpt>
      <trkpt lat="31.81150000" lon="34.99013000">
        <ele>328.00000</ele>
        <time>2010-01-01T02:25:03Z</time>
      </trkpt>
      <trkpt lat="31.81158000" lon="34.99030000">
        <ele>326.00000</ele>
        <time>2010-01-01T02:25:10Z</time>
      </trkpt>
      <trkpt lat="31.81163000" lon="34.99052000">
        <ele>324.00000</ele>
        <time>2010-01-01T02:25:18Z</time>
      </trkpt>
      <trkpt lat="31.81168000" lon="34.99064000">
        <ele>323.00000</ele>
        <time>2010-01-01T02:25:22Z</time>
      </trkpt>
      <trkpt lat="31.81180000" lon="34.99085000">
        <ele>322.00000</ele>
        <time>2010-01-01T02:25:31Z</time>
      </trkpt>
      <trkpt lat="31.81207000" lon="34.99114000">
        <ele>318.00000</ele>
        <time>2010-01-01T02:25:45Z</time>
      </trkpt>
      <trkpt lat="31.81236000" lon="34.99136000">
        <ele>311.00000</ele>
        <time>2010-01-01T02:25:59Z</time>
      </trkpt>
      <trkpt lat="31.81235000" lon="34.99136000">
        <ele>312.00000</ele>
        <time>2010-01-01T02:26:00Z</time>
      </trkpt>
      <trkpt lat="31.81263000" lon="34.99157000">
        <ele>310.00000</ele>
        <time>2010-01-01T02:26:13Z</time>
      </trkpt>
      <trkpt lat="31.81290000" lon="34.99188000">
        <ele>310.00000</ele>
        <time>2010-01-01T02:26:28Z</time>
      </trkpt>
      <trkpt lat="31.81313000" lon="34.99232000">
        <ele>303.00000</ele>
        <time>2010-01-01T02:26:45Z</time>
      </trkpt>
      <trkpt lat="31.81318000" lon="34.99251000">
        <ele>301.00000</ele>
        <time>2010-01-01T02:26:52Z</time>
      </trkpt>
      <trkpt lat="31.81318000" lon="34.99267000">
        <ele>301.00000</ele>
        <time>2010-01-01T02:26:58Z</time>
      </trkpt>
      <trkpt lat="31.81314000" lon="34.99284000">
        <ele>300.00000</ele>
        <time>2010-01-01T02:27:04Z</time>
      </trkpt>
      <trkpt lat="31.81245000" lon="34.99344000">
        <ele>297.00000</ele>
        <time>2010-01-01T02:27:38Z</time>
      </trkpt>
      <trkpt lat="31.81163000" lon="34.99408000">
        <ele>284.00000</ele>
        <time>2010-01-01T02:28:17Z</time>
      </trkpt>
      <trkpt lat="31.81132000" lon="34.99423000">
        <ele>282.00000</ele>
        <time>2010-01-01T02:28:31Z</time>
      </trkpt>
      <trkpt lat="31.81103000" lon="34.99425000">
        <ele>282.00000</ele>
        <time>2010-01-01T02:28:42Z</time>
      </trkpt>
      <trkpt lat="31.81089000" lon="34.99424000">
        <ele>283.00000</ele>
        <time>2010-01-01T02:28:48Z</time>
      </trkpt>
      <trkpt lat="31.81071000" lon="34.99428000">
        <ele>283.00000</ele>
        <time>2010-01-01T02:28:55Z</time>
      </trkpt>
      <trkpt lat="31.81065000" lon="34.99435000">
        <ele>282.00000</ele>
        <time>2010-01-01T02:28:59Z</time>
      </trkpt>
      <trkpt lat="31.81061000" lon="34.99444000">
        <ele>280.00000</ele>
        <time>2010-01-01T02:29:02Z</time>
      </trkpt>
      <trkpt lat="31.81055000" lon="34.99479000">
        <ele>275.00000</ele>
        <time>2010-01-01T02:29:14Z</time>
      </trkpt>
      <trkpt lat="31.81050000" lon="34.99491000">
        <ele>274.00000</ele>
        <time>2010-01-01T02:29:19Z</time>
      </trkpt>
      <trkpt lat="31.81041000" lon="34.99497000">
        <ele>275.00000</ele>
        <time>2010-01-01T02:29:23Z</time>
      </trkpt>
      <trkpt lat="31.81022000" lon="34.99502000">
        <ele>279.00000</ele>
        <time>2010-01-01T02:29:31Z</time>
      </trkpt>
      <trkpt lat="31.80976000" lon="34.99503000">
        <ele>290.00000</ele>
        <time>2010-01-01T02:29:49Z</time>
      </trkpt>
      <trkpt lat="31.80975000" lon="34.99503000">
        <ele>290.00000</ele>
        <time>2010-01-01T02:29:50Z</time>
      </trkpt>
      <trkpt lat="31.80890000" lon="34.99502000">
        <ele>291.00000</ele>
        <time>2010-01-01T02:30:24Z</time>
      </trkpt>
      <trkpt lat="31.80877000" lon="34.99496000">
        <ele>290.00000</ele>
        <time>2010-01-01T02:30:29Z</time>
      </trkpt>
      <trkpt lat="31.80793000" lon="34.99431000">
        <ele>296.00000</ele>
        <time>2010-01-01T02:31:10Z</time>
      </trkpt>
      <trkpt lat="31.80791000" lon="34.99439000">
        <ele>294.00000</ele>
        <time>2010-01-01T02:31:12Z</time>
      </trkpt>
      <trkpt lat="31.80788000" lon="34.99446000">
        <ele>293.00000</ele>
        <time>2010-01-01T02:31:15Z</time>
      </trkpt>
      <trkpt lat="31.80766000" lon="34.99464000">
        <ele>293.00000</ele>
        <time>2010-01-01T02:31:26Z</time>
      </trkpt>
      <trkpt lat="31.80746000" lon="34.99489000">
        <ele>293.00000</ele>
        <time>2010-01-01T02:31:37Z</time>
      </trkpt>
      <trkpt lat="31.80720000" lon="34.99528000">
        <ele>298.00000</ele>
        <time>2010-01-01T02:31:54Z</time>
      </trkpt>
      <trkpt lat="31.80657000" lon="34.99580000">
        <ele>302.00000</ele>
        <time>2010-01-01T02:32:25Z</time>
      </trkpt>
      <trkpt lat="31.80606000" lon="34.99611000">
        <ele>306.00000</ele>
        <time>2010-01-01T02:32:48Z</time>
      </trkpt>
      <trkpt lat="31.80592000" lon="34.99618000">
        <ele>308.00000</ele>
        <time>2010-01-01T02:32:54Z</time>
      </trkpt>
      <trkpt lat="31.80580000" lon="34.99621000">
        <ele>309.00000</ele>
        <time>2010-01-01T02:32:59Z</time>
      </trkpt>
      <trkpt lat="31.80549000" lon="34.99620000">
        <ele>309.00000</ele>
        <time>2010-01-01T02:33:12Z</time>
      </trkpt>
      <trkpt lat="31.80527000" lon="34.99618000">
        <ele>310.00000</ele>
        <time>2010-01-01T02:33:20Z</time>
      </trkpt>
      <trkpt lat="31.80497000" lon="34.99629000">
        <ele>309.00000</ele>
        <time>2010-01-01T02:33:33Z</time>
      </trkpt>
      <trkpt lat="31.80474000" lon="34.99636000">
        <ele>311.00000</ele>
        <time>2010-01-01T02:33:42Z</time>
      </trkpt>
      <trkpt lat="31.80458000" lon="34.99637000">
        <ele>313.00000</ele>
        <time>2010-01-01T02:33:49Z</time>
      </trkpt>
      <trkpt lat="31.80413000" lon="34.99637000">
        <ele>319.00000</ele>
        <time>2010-01-01T02:34:07Z</time>
      </trkpt>
      <trkpt lat="31.80398000" lon="34.99640000">
        <ele>320.00000</ele>
        <time>2010-01-01T02:34:13Z</time>
      </trkpt>
      <trkpt lat="31.80366000" lon="34.99652000">
        <ele>320.00000</ele>
        <time>2010-01-01T02:34:26Z</time>
      </trkpt>
      <trkpt lat="31.80334000" lon="34.99661000">
        <ele>318.00000</ele>
        <time>2010-01-01T02:34:40Z</time>
      </trkpt>
      <trkpt lat="31.80317000" lon="34.99663000">
        <ele>318.00000</ele>
        <time>2010-01-01T02:34:46Z</time>
      </trkpt>
      <trkpt lat="31.80284000" lon="34.99659000">
        <ele>319.00000</ele>
        <time>2010-01-01T02:35:00Z</time>
      </trkpt>
      <trkpt lat="31.80268000" lon="34.99660000">
        <ele>320.00000</ele>
        <time>2010-01-01T02:35:06Z</time>
      </trkpt>
      <trkpt lat="31.80248000" lon="34.99666000">
        <ele>322.00000</ele>
        <time>2010-01-01T02:35:14Z</time>
      </trkpt>
      <trkpt lat="31.80219000" lon="34.99679000">
        <ele>327.00000</ele>
        <time>2010-01-01T02:35:27Z</time>
      </trkpt>
      <trkpt lat="31.80178000" lon="34.99704000">
        <ele>331.00000</ele>
        <time>2010-01-01T02:35:45Z</time>
      </trkpt>
      <trkpt lat="31.80161000" lon="34.99717000">
        <ele>332.00000</ele>
        <time>2010-01-01T02:35:53Z</time>
      </trkpt>
      <trkpt lat="31.80138000" lon="34.99738000">
        <ele>333.00000</ele>
        <time>2010-01-01T02:36:05Z</time>
      </trkpt>
      <trkpt lat="31.80126000" lon="34.99747000">
        <ele>333.00000</ele>
        <time>2010-01-01T02:36:11Z</time>
      </trkpt>
      <trkpt lat="31.80041000" lon="34.99794000">
        <ele>339.00000</ele>
        <time>2010-01-01T02:36:48Z</time>
      </trkpt>
      <trkpt lat="31.80020000" lon="34.99802000">
        <ele>340.00000</ele>
        <time>2010-01-01T02:36:57Z</time>
      </trkpt>
      <trkpt lat="31.79966000" lon="34.99815000">
        <ele>342.00000</ele>
        <time>2010-01-01T02:37:19Z</time>
      </trkpt>
      <trkpt lat="31.79889000" lon="34.99830000">
        <ele>345.00000</ele>
        <time>2010-01-01T02:37:51Z</time>
      </trkpt>
      <trkpt lat="31.79856000" lon="34.99843000">
        <ele>346.00000</ele>
        <time>2010-01-01T02:38:04Z</time>
      </trkpt>
      <trkpt lat="31.79797000" lon="34.99874000">
        <ele>351.00000</ele>
        <time>2010-01-01T02:38:30Z</time>
      </trkpt>
      <trkpt lat="31.79770000" lon="34.99882000">
        <ele>352.00000</ele>
        <time>2010-01-01T02:38:41Z</time>
      </trkpt>
      <trkpt lat="31.79695000" lon="34.99912000">
        <ele>354.00000</ele>
        <time>2010-01-01T02:39:13Z</time>
      </trkpt>
      <trkpt lat="31.79682000" lon="34.99916000">
        <ele>354.00000</ele>
        <time>2010-01-01T02:39:19Z</time>
      </trkpt>
      <trkpt lat="31.79655000" lon="34.99914000">
        <ele>357.00000</ele>
        <time>2010-01-01T02:39:29Z</time>
      </trkpt>
      <trkpt lat="31.79646000" lon="34.99915000">
        <ele>359.00000</ele>
        <time>2010-01-01T02:39:33Z</time>
      </trkpt>
      <trkpt lat="31.79636000" lon="34.99920000">
        <ele>361.00000</ele>
        <time>2010-01-01T02:39:37Z</time>
      </trkpt>
      <trkpt lat="31.79611000" lon="34.99932000">
        <ele>363.00000</ele>
        <time>2010-01-01T02:39:48Z</time>
      </trkpt>
      <trkpt lat="31.79571000" lon="34.99940000">
        <ele>364.00000</ele>
        <time>2010-01-01T02:40:04Z</time>
      </trkpt>
      <trkpt lat="31.79557000" lon="34.99946000">
        <ele>364.00000</ele>
        <time>2010-01-01T02:40:10Z</time>
      </trkpt>
      <trkpt lat="31.79455000" lon="35.00014000">
        <ele>372.00000</ele>
        <time>2010-01-01T02:40:57Z</time>
      </trkpt>
      <trkpt lat="31.79433000" lon="35.00024000">
        <ele>373.00000</ele>
        <time>2010-01-01T02:41:07Z</time>
      </trkpt>
      <trkpt lat="31.79407000" lon="35.00031000">
        <ele>374.00000</ele>
        <time>2010-01-01T02:41:17Z</time>
      </trkpt>
      <trkpt lat="31.79402000" lon="35.00039000">
        <ele>374.00000</ele>
        <time>2010-01-01T02:41:21Z</time>
      </trkpt>
      <trkpt lat="31.79400000" lon="35.00049000">
        <ele>374.00000</ele>
        <time>2010-01-01T02:41:24Z</time>
      </trkpt>
      <trkpt lat="31.79410000" lon="35.00058000">
        <ele>374.00000</ele>
        <time>2010-01-01T02:41:29Z</time>
      </trkpt>
      <trkpt lat="31.79433000" lon="35.00067000">
        <ele>374.00000</ele>
        <time>2010-01-01T02:41:39Z</time>
      </trkpt>
      <trkpt lat="31.79443000" lon="35.00079000">
        <ele>375.00000</ele>
        <time>2010-01-01T02:41:45Z</time>
      </trkpt>
      <trkpt lat="31.79453000" lon="35.00079000">
        <ele>376.00000</ele>
        <time>2010-01-01T02:41:49Z</time>
      </trkpt>
      <trkpt lat="31.79491000" lon="35.00066000">
        <ele>375.00000</ele>
        <time>2010-01-01T02:42:05Z</time>
      </trkpt>
      <trkpt lat="31.79505000" lon="35.00064000">
        <ele>375.00000</ele>
        <time>2010-01-01T02:42:10Z</time>
      </trkpt>
      <trkpt lat="31.79532000" lon="35.00064000">
        <ele>378.00000</ele>
        <time>2010-01-01T02:42:21Z</time>
      </trkpt>
      <trkpt lat="31.79541000" lon="35.00066000">
        <ele>379.00000</ele>
        <time>2010-01-01T02:42:25Z</time>
      </trkpt>
      <trkpt lat="31.79565000" lon="35.00079000">
        <ele>382.00000</ele>
        <time>2010-01-01T02:42:35Z</time>
      </trkpt>
      <trkpt lat="31.79582000" lon="35.00092000">
        <ele>383.00000</ele>
        <time>2010-01-01T02:42:43Z</time>
      </trkpt>
      <trkpt lat="31.79587000" lon="35.00100000">
        <ele>384.00000</ele>
        <time>2010-01-01T02:42:47Z</time>
      </trkpt>
      <trkpt lat="31.79591000" lon="35.00110000">
        <ele>385.00000</ele>
        <time>2010-01-01T02:42:51Z</time>
      </trkpt>
      <trkpt lat="31.79591000" lon="35.00125000">
        <ele>385.00000</ele>
        <time>2010-01-01T02:42:56Z</time>
      </trkpt>
      <trkpt lat="31.79580000" lon="35.00149000">
        <ele>385.00000</ele>
        <time>2010-01-01T02:43:05Z</time>
      </trkpt>
      <trkpt lat="31.79572000" lon="35.00162000">
        <ele>385.00000</ele>
        <time>2010-01-01T02:43:10Z</time>
      </trkpt>
      <trkpt lat="31.79565000" lon="35.00171000">
        <ele>385.00000</ele>
        <time>2010-01-01T02:43:15Z</time>
      </trkpt>
      <trkpt lat="31.79489000" lon="35.00251000">
        <ele>393.00000</ele>
        <time>2010-01-01T02:43:55Z</time>
      </trkpt>
      <trkpt lat="31.79462000" lon="35.00275000">
        <ele>393.00000</ele>
        <time>2010-01-01T02:44:09Z</time>
      </trkpt>
      <trkpt lat="31.79449000" lon="35.00290000">
        <ele>393.00000</ele>
        <time>2010-01-01T02:44:16Z</time>
      </trkpt>
      <trkpt lat="31.79424000" lon="35.00333000">
        <ele>396.00000</ele>
        <time>2010-01-01T02:44:34Z</time>
      </trkpt>
      <trkpt lat="31.79407000" lon="35.00364000">
        <ele>398.00000</ele>
        <time>2010-01-01T02:44:46Z</time>
      </trkpt>
      <trkpt lat="31.79400000" lon="35.00384000">
        <ele>398.00000</ele>
        <time>2010-01-01T02:44:54Z</time>
      </trkpt>
      <trkpt lat="31.79390000" lon="35.00402000">
        <ele>399.00000</ele>
        <time>2010-01-01T02:45:01Z</time>
      </trkpt>
      <trkpt lat="31.79358000" lon="35.00446000">
        <ele>395.00000</ele>
        <time>2010-01-01T02:45:21Z</time>
      </trkpt>
      <trkpt lat="31.79319000" lon="35.00457000">
        <ele>392.00000</ele>
        <time>2010-01-01T02:45:37Z</time>
      </trkpt>
      <trkpt lat="31.79308000" lon="35.00455000">
        <ele>392.00000</ele>
        <time>2010-01-01T02:45:41Z</time>
      </trkpt>
      <trkpt lat="31.79294000" lon="35.00446000">
        <ele>390.00000</ele>
        <time>2010-01-01T02:45:48Z</time>
      </trkpt>
      <trkpt lat="31.79279000" lon="35.00441000">
        <ele>389.00000</ele>
        <time>2010-01-01T02:45:54Z</time>
      </trkpt>
      <trkpt lat="31.79178000" lon="35.00435000">
        <ele>377.00000</ele>
        <time>2010-01-01T02:46:34Z</time>
      </trkpt>
      <trkpt lat="31.79089000" lon="35.00420000">
        <ele>370.00000</ele>
        <time>2010-01-01T02:47:10Z</time>
      </trkpt>
      <trkpt lat="31.79088000" lon="35.00420000">
        <ele>369.00000</ele>
        <time>2010-01-01T02:47:11Z</time>
      </trkpt>
      <trkpt lat="31.79006000" lon="35.00406000">
        <ele>364.00000</ele>
        <time>2010-01-01T02:47:44Z</time>
      </trkpt>
      <trkpt lat="31.78940000" lon="35.00401000">
        <ele>356.00000</ele>
        <time>2010-01-01T02:48:10Z</time>
      </trkpt>
      <trkpt lat="31.78914000" lon="35.00401000">
        <ele>352.00000</ele>
        <time>2010-01-01T02:48:21Z</time>
      </trkpt>
      <trkpt lat="31.78890000" lon="35.00407000">
        <ele>350.00000</ele>
        <time>2010-01-01T02:48:31Z</time>
      </trkpt>
      <trkpt lat="31.78879000" lon="35.00415000">
        <ele>349.00000</ele>
        <time>2010-01-01T02:48:36Z</time>
      </trkpt>
      <trkpt lat="31.78868000" lon="35.00426000">
        <ele>350.00000</ele>
        <time>2010-01-01T02:48:42Z</time>
      </trkpt>
      <trkpt lat="31.78781000" lon="35.00545000">
        <ele>340.00000</ele>
        <time>2010-01-01T02:49:35Z</time>
      </trkpt>
      <trkpt lat="31.78757000" lon="35.00590000">
        <ele>338.00000</ele>
        <time>2010-01-01T02:49:53Z</time>
      </trkpt>
      <trkpt lat="31.78747000" lon="35.00623000">
        <ele>337.00000</ele>
        <time>2010-01-01T02:50:05Z</time>
      </trkpt>
      <trkpt lat="31.78739000" lon="35.00657000">
        <ele>334.00000</ele>
        <time>2010-01-01T02:50:17Z</time>
      </trkpt>
      <trkpt lat="31.78734000" lon="35.00703000">
        <ele>332.00000</ele>
        <time>2010-01-01T02:50:33Z</time>
      </trkpt>
      <trkpt lat="31.78730000" lon="35.00720000">
        <ele>332.00000</ele>
        <time>2010-01-01T02:50:39Z</time>
      </trkpt>
      <trkpt lat="31.78726000" lon="35.00728000">
        <ele>332.00000</ele>
        <time>2010-01-01T02:50:42Z</time>
      </trkpt>
      <trkpt lat="31.78710000" lon="35.00741000">
        <ele>333.00000</ele>
        <time>2010-01-01T02:50:50Z</time>
      </trkpt>
      <trkpt lat="31.78699000" lon="35.00743000">
        <ele>334.00000</ele>
        <time>2010-01-01T02:50:54Z</time>
      </trkpt>
      <trkpt lat="31.78680000" lon="35.00741000">
        <ele>333.00000</ele>
        <time>2010-01-01T02:51:02Z</time>
      </trkpt>
      <trkpt lat="31.78666000" lon="35.00737000">
        <ele>332.00000</ele>
        <time>2010-01-01T02:51:08Z</time>
      </trkpt>
      <trkpt lat="31.78665000" lon="35.00737000">
        <ele>332.00000</ele>
        <time>2010-01-01T02:51:08Z</time>
      </trkpt>
      <trkpt lat="31.78630000" lon="35.00726000">
        <ele>325.00000</ele>
        <time>2010-01-01T02:51:23Z</time>
      </trkpt>
      <trkpt lat="31.78607000" lon="35.00721000">
        <ele>322.00000</ele>
        <time>2010-01-01T02:51:32Z</time>
      </trkpt>
      <trkpt lat="31.78581000" lon="35.00712000">
        <ele>318.00000</ele>
        <time>2010-01-01T02:51:43Z</time>
      </trkpt>
      <trkpt lat="31.78567000" lon="35.00703000">
        <ele>316.00000</ele>
        <time>2010-01-01T02:51:49Z</time>
      </trkpt>
      <trkpt lat="31.78555000" lon="35.00686000">
        <ele>314.00000</ele>
        <time>2010-01-01T02:51:57Z</time>
      </trkpt>
      <trkpt lat="31.78550000" lon="35.00675000">
        <ele>312.00000</ele>
        <time>2010-01-01T02:52:01Z</time>
      </trkpt>
      <trkpt lat="31.78543000" lon="35.00651000">
        <ele>309.00000</ele>
        <time>2010-01-01T02:52:10Z</time>
      </trkpt>
      <trkpt lat="31.78539000" lon="35.00627000">
        <ele>306.00000</ele>
        <time>2010-01-01T02:52:18Z</time>
      </trkpt>
      <trkpt lat="31.78531000" lon="35.00608000">
        <ele>305.00000</ele>
        <time>2010-01-01T02:52:25Z</time>
      </trkpt>
      <trkpt lat="31.78511000" lon="35.00584000">
        <ele>304.00000</ele>
        <time>2010-01-01T02:52:37Z</time>
      </trkpt>
      <trkpt lat="31.78511000" lon="35.00583000">
        <ele>304.00000</ele>
        <time>2010-01-01T02:52:37Z</time>
      </trkpt>
      <trkpt lat="31.78487000" lon="35.00559000">
        <ele>301.00000</ele>
        <time>2010-01-01T02:52:49Z</time>
      </trkpt>
      <trkpt lat="31.78438000" lon="35.00528000">
        <ele>293.00000</ele>
        <time>2010-01-01T02:53:12Z</time>
      </trkpt>
      <trkpt lat="31.78354000" lon="35.00493000">
        <ele>288.00000</ele>
        <time>2010-01-01T02:53:47Z</time>
      </trkpt>
      <trkpt lat="31.78345000" lon="35.00493000">
        <ele>286.00000</ele>
        <time>2010-01-01T02:53:51Z</time>
      </trkpt>
      <trkpt lat="31.78338000" lon="35.00495000">
        <ele>286.00000</ele>
        <time>2010-01-01T02:53:54Z</time>
      </trkpt>
      <trkpt lat="31.78320000" lon="35.00504000">
        <ele>284.00000</ele>
        <time>2010-01-01T02:54:02Z</time>
      </trkpt>
      <trkpt lat="31.78303000" lon="35.00519000">
        <ele>284.00000</ele>
        <time>2010-01-01T02:54:10Z</time>
      </trkpt>
      <trkpt lat="31.78292000" lon="35.00524000">
        <ele>284.00000</ele>
        <time>2010-01-01T02:54:15Z</time>
      </trkpt>
      <trkpt lat="31.78283000" lon="35.00525000">
        <ele>284.00000</ele>
        <time>2010-01-01T02:54:19Z</time>
      </trkpt>
      <trkpt lat="31.78276000" lon="35.00523000">
        <ele>283.00000</ele>
        <time>2010-01-01T02:54:21Z</time>
      </trkpt>
      <trkpt lat="31.78266000" lon="35.00515000">
        <ele>281.00000</ele>
        <time>2010-01-01T02:54:26Z</time>
      </trkpt>
      <trkpt lat="31.78239000" lon="35.00481000">
        <ele>273.00000</ele>
        <time>2010-01-01T02:54:42Z</time>
      </trkpt>
      <trkpt lat="31.78228000" lon="35.00473000">
        <ele>272.00000</ele>
        <time>2010-01-01T02:54:47Z</time>
      </trkpt>
      <trkpt lat="31.78203000" lon="35.00457000">
        <ele>270.00000</ele>
        <time>2010-01-01T02:54:59Z</time>
      </trkpt>
      <trkpt lat="31.78197000" lon="35.00452000">
        <ele>269.00000</ele>
        <time>2010-01-01T02:55:02Z</time>
      </trkpt>
      <trkpt lat="31.78189000" lon="35.00440000">
        <ele>268.00000</ele>
        <time>2010-01-01T02:55:07Z</time>
      </trkpt>
      <trkpt lat="31.78183000" lon="35.00427000">
        <ele>266.00000</ele>
        <time>2010-01-01T02:55:12Z</time>
      </trkpt>
      <trkpt lat="31.78171000" lon="35.00362000">
        <ele>266.00000</ele>
        <time>2010-01-01T02:55:35Z</time>
      </trkpt>
      <trkpt lat="31.78159000" lon="35.00319000">
        <ele>266.00000</ele>
        <time>2010-01-01T02:55:50Z</time>
      </trkpt>
      <trkpt lat="31.78159000" lon="35.00318000">
        <ele>266.00000</ele>
        <time>2010-01-01T02:55:50Z</time>
      </trkpt>
      <trkpt lat="31.78152000" lon="35.00294000">
        <ele>267.00000</ele>
        <time>2010-01-01T02:55:59Z</time>
      </trkpt>
      <trkpt lat="31.78139000" lon="35.00231000">
        <ele>263.00000</ele>
        <time>2010-01-01T02:56:21Z</time>
      </trkpt>
      <trkpt lat="31.78168000" lon="35.00224000">
        <ele>265.00000</ele>
        <time>2010-01-01T02:56:33Z</time>
      </trkpt>
    </trkseg>
  </trk>
</gpx>

